Time,TemperatureF,DewpointF,PressureIn,WindDirection,WindDirectionDegrees,WindSpeedMPH,WindSpeedGustMPH,Humidity,HourlyPrecipIn,Conditions,Clouds,dailyrainin,SoftwareType,DateUTC
2013-10-18 08:41:00,39.6,33.6,30.28,North,5,1.0,1.0,79,0.00,,,0.00,Wunderground v.1.15,2013-10-18 15:41:00,
2013-10-18 08:42:00,39.6,33.6,30.28,North,5,1.0,1.0,79,0.00,,,0.00,Wunderground v.1.15,2013-10-18 15:42:00,
2013-10-18 08:46:00,39.6,33.9,30.28,North,5,1.0,2.0,80,0.00,,,0.00,Wunderground v.1.15,2013-10-18 15:46:00,
2013-10-18 08:47:00,39.6,33.9,30.28,North,5,0.0,2.0,80,0.00,,,0.00,Wunderground v.1.15,2013-10-18 15:47:00,
2013-10-18 08:51:00,39.5,33.8,30.28,North,5,2.0,2.0,80,0.00,,,0.00,Wunderground v.1.15,2013-10-18 15:51:00,
2013-10-18 08:52:00,39.5,33.8,30.28,North,5,2.0,2.0,80,0.00,,,0.00,Wunderground v.1.15,2013-10-18 15:52:00,
2013-10-18 08:53:00,39.4,33.4,30.28,North,5,2.0,3.0,79,0.00,,,0.00,Wunderground v.1.15,2013-10-18 15:53:00,
2013-10-18 08:56:00,39.0,33.0,30.29,North,5,1.0,3.0,79,0.00,,,0.00,Wunderground v.1.15,2013-10-18 15:56:00,
2013-10-18 08:57:00,39.0,33.0,30.29,North,5,1.0,3.0,79,0.00,,,0.00,Wunderground v.1.15,2013-10-18 15:57:00,
2013-10-18 08:58:00,38.9,32.9,30.29,North,5,2.0,3.0,79,0.00,,,0.00,Wunderground v.1.15,2013-10-18 15:58:00,
2013-10-18 09:02:00,38.8,33.2,30.29,North,5,0.0,2.0,80,0.00,,,0.00,Wunderground v.1.15,2013-10-18 16:02:00,
2013-10-18 09:03:00,38.9,33.3,30.28,North,5,1.0,2.0,80,0.00,,,0.00,Wunderground v.1.15,2013-10-18 16:03:00,
2013-10-18 09:07:00,39.2,33.5,30.29,North,5,2.0,2.0,80,0.00,,,0.00,Wunderground v.1.15,2013-10-18 16:07:00,
2013-10-18 09:08:00,39.3,33.6,30.29,North,5,0.0,2.0,80,0.00,,,0.00,Wunderground v.1.15,2013-10-18 16:08:00,
2013-10-18 09:13:00,39.6,33.6,30.28,North,5,2.0,2.0,79,0.00,,,0.00,Wunderground v.1.15,2013-10-18 16:13:00,
2013-10-18 09:18:00,40.0,34.0,30.28,North,5,1.0,3.0,79,0.00,,,0.00,Wunderground v.1.15,2013-10-18 16:18:00,
2013-10-18 09:19:00,40.0,34.0,30.29,North,5,2.0,3.0,79,0.00,,,0.00,Wunderground v.1.15,2013-10-18 16:19:00,
2013-10-18 09:23:00,40.4,34.4,30.29,North,5,1.0,3.0,79,0.00,,,0.00,Wunderground v.1.15,2013-10-18 16:23:00,
2013-10-18 09:24:00,40.5,34.5,30.29,North,5,1.0,3.0,79,0.00,,,0.00,Wunderground v.1.15,2013-10-18 16:24:00,
2013-10-18 09:28:00,40.9,34.9,30.29,North,5,1.0,3.0,79,0.00,,,0.00,Wunderground v.1.15,2013-10-18 16:28:00,
2013-10-18 09:29:00,41.0,35.0,30.29,North,5,1.0,3.0,79,0.00,,,0.00,Wunderground v.1.15,2013-10-18 16:29:00,
2013-10-18 09:33:00,41.6,35.6,30.29,North,5,0.0,2.0,79,0.00,,,0.00,Wunderground v.1.15,2013-10-18 16:33:00,
2013-10-18 09:34:00,41.7,35.7,30.29,North,5,0.0,2.0,79,0.00,,,0.00,Wunderground v.1.15,2013-10-18 16:34:00,
2013-10-18 09:38:00,42.3,35.9,30.29,North,5,1.0,2.0,78,0.00,,,0.00,Wunderground v.1.15,2013-10-18 16:38:00,
2013-10-18 09:39:00,42.4,36.0,30.29,North,5,2.0,2.0,78,0.00,,,0.00,Wunderground v.1.15,2013-10-18 16:39:00,
2013-10-18 09:40:00,42.5,36.1,30.29,North,5,0.0,1.0,78,0.00,,,0.00,Wunderground v.1.15,2013-10-18 16:40:00,
2013-10-18 09:43:00,42.8,36.1,30.29,North,5,0.0,1.0,77,0.00,,,0.00,Wunderground v.1.15,2013-10-18 16:43:00,
2013-10-18 09:44:00,42.8,36.1,30.29,North,5,0.0,1.0,77,0.00,,,0.00,Wunderground v.1.15,2013-10-18 16:44:00,
2013-10-18 09:45:00,42.9,36.2,30.29,North,5,0.0,1.0,77,0.00,,,0.00,Wunderground v.1.15,2013-10-18 16:45:00,
2013-10-18 09:48:00,43.4,36.7,30.29,North,5,1.0,1.0,77,0.00,,,0.00,Wunderground v.1.15,2013-10-18 16:48:00,
2013-10-18 09:49:00,43.5,36.4,30.29,North,5,1.0,1.0,76,0.00,,,0.00,Wunderground v.1.15,2013-10-18 16:49:00,
2013-10-18 09:50:00,43.6,36.5,30.29,North,5,0.0,0.0,76,0.00,,,0.00,Wunderground v.1.15,2013-10-18 16:50:00,
2013-10-18 09:51:00,43.7,36.6,30.29,North,5,0.0,1.0,76,0.00,,,0.00,Wunderground v.1.15,2013-10-18 16:51:00,
2013-10-18 09:53:00,44.0,36.6,30.29,North,5,0.0,1.0,75,0.00,,,0.00,Wunderground v.1.15,2013-10-18 16:53:00,
2013-10-18 09:54:00,44.1,36.7,30.29,North,5,0.0,1.0,75,0.00,,,0.00,Wunderground v.1.15,2013-10-18 16:54:00,
2013-10-18 09:55:00,44.2,36.4,30.30,North,5,0.0,1.0,74,0.00,,,0.00,Wunderground v.1.15,2013-10-18 16:55:00,
2013-10-18 09:56:00,44.5,36.7,30.29,North,5,0.0,1.0,74,0.00,,,0.00,Wunderground v.1.15,2013-10-18 16:56:00,
2013-10-18 09:59:00,44.7,36.6,30.30,North,5,0.0,2.0,73,0.00,,,0.00,Wunderground v.1.15,2013-10-18 16:59:00,
2013-10-18 10:00:00,44.8,36.3,30.29,North,5,0.0,0.0,72,0.00,,,0.00,Wunderground v.1.15,2013-10-18 17:00:00,
2013-10-18 10:02:00,44.8,36.3,30.29,North,5,0.0,2.0,72,0.00,,,0.00,Wunderground v.1.15,2013-10-18 17:02:00,
2013-10-18 10:04:00,45.1,36.6,30.29,North,5,0.0,2.0,72,0.00,,,0.00,Wunderground v.1.15,2013-10-18 17:04:00,
2013-10-18 10:05:00,45.2,36.7,30.29,North,5,0.0,2.0,72,0.00,,,0.00,Wunderground v.1.15,2013-10-18 17:05:00,
2013-10-18 10:06:00,45.3,36.4,30.29,North,5,0.0,2.0,71,0.00,,,0.00,Wunderground v.1.15,2013-10-18 17:06:00,
2013-10-18 10:07:00,45.5,36.6,30.29,North,5,1.0,2.0,71,0.00,,,0.00,Wunderground v.1.15,2013-10-18 17:07:00,
2013-10-18 10:09:00,45.7,36.5,30.29,North,5,0.0,2.0,70,0.00,,,0.00,Wunderground v.1.15,2013-10-18 17:09:00,
2013-10-18 10:10:00,45.8,36.6,30.29,North,5,0.0,1.0,70,0.00,,,0.00,Wunderground v.1.15,2013-10-18 17:10:00,
2013-10-18 10:11:00,45.9,36.7,30.29,North,5,1.0,2.0,70,0.00,,,0.00,Wunderground v.1.15,2013-10-18 17:11:00,
2013-10-18 10:12:00,46.0,36.4,30.29,North,5,0.0,2.0,69,0.00,,,0.00,Wunderground v.1.15,2013-10-18 17:12:00,
2013-10-18 10:14:00,46.1,36.5,30.29,North,5,0.0,2.0,69,0.00,,,0.00,Wunderground v.1.15,2013-10-18 17:14:00,
2013-10-18 10:15:00,46.1,36.5,30.29,North,5,0.0,2.0,69,0.00,,,0.00,Wunderground v.1.15,2013-10-18 17:15:00,
2013-10-18 10:16:00,46.2,36.6,30.29,North,5,0.0,2.0,69,0.00,,,0.00,Wunderground v.1.15,2013-10-18 17:16:00,
2013-10-18 10:17:00,46.3,36.7,30.29,North,5,0.0,2.0,69,0.00,,,0.00,Wunderground v.1.15,2013-10-18 17:17:00,
2013-10-18 10:18:00,46.4,36.4,30.29,North,5,1.0,2.0,68,0.00,,,0.00,Wunderground v.1.15,2013-10-18 17:18:00,
2013-10-18 10:19:00,46.5,36.5,30.29,North,5,0.0,2.0,68,0.00,,,0.00,Wunderground v.1.15,2013-10-18 17:19:00,
2013-10-18 10:20:00,46.6,36.6,30.29,North,5,1.0,1.0,68,0.00,,,0.00,Wunderground v.1.15,2013-10-18 17:20:00,
2013-10-18 10:21:00,46.7,36.7,30.29,North,5,0.0,1.0,68,0.00,,,0.00,Wunderground v.1.15,2013-10-18 17:21:00,
2013-10-18 10:22:00,46.8,36.8,30.29,North,5,1.0,1.0,68,0.00,,,0.00,Wunderground v.1.15,2013-10-18 17:22:00,
2013-10-18 10:23:00,46.9,36.9,30.29,North,5,0.0,1.0,68,0.00,,,0.00,Wunderground v.1.15,2013-10-18 17:23:00,
2013-10-18 10:24:00,46.9,36.9,30.29,North,5,0.0,1.0,68,0.00,,,0.00,Wunderground v.1.15,2013-10-18 17:24:00,
2013-10-18 10:25:00,46.9,36.5,30.29,North,5,0.0,1.0,67,0.00,,,0.00,Wunderground v.1.15,2013-10-18 17:25:00,
2013-10-18 10:26:00,47.0,36.6,30.29,North,5,0.0,1.0,67,0.00,,,0.00,Wunderground v.1.15,2013-10-18 17:26:00,
2013-10-18 10:27:00,47.0,36.6,30.29,North,5,0.0,1.0,67,0.00,,,0.00,Wunderground v.1.15,2013-10-18 17:27:00,
2013-10-18 10:29:00,47.2,36.4,30.29,North,5,0.0,1.0,66,0.00,,,0.00,Wunderground v.1.15,2013-10-18 17:29:00,
2013-10-18 10:30:00,47.2,36.4,30.29,North,5,0.0,0.0,66,0.00,,,0.00,Wunderground v.1.15,2013-10-18 17:30:00,
2013-10-18 10:31:00,47.2,36.0,30.29,North,5,0.0,0.0,65,0.00,,,0.00,Wunderground v.1.15,2013-10-18 17:31:00,
2013-10-18 10:32:00,47.3,36.1,30.29,North,5,0.0,1.0,65,0.00,,,0.00,Wunderground v.1.15,2013-10-18 17:32:00,
2013-10-18 10:34:00,47.4,36.2,30.29,North,5,0.0,1.0,65,0.00,,,0.00,Wunderground v.1.15,2013-10-18 17:34:00,
2013-10-18 10:35:00,47.5,36.3,30.29,North,5,0.0,1.0,65,0.00,,,0.00,Wunderground v.1.15,2013-10-18 17:35:00,
2013-10-18 10:36:00,47.6,36.4,30.29,North,5,0.0,1.0,65,0.00,,,0.00,Wunderground v.1.15,2013-10-18 17:36:00,
2013-10-18 10:37:00,47.7,36.5,30.29,North,5,0.0,1.0,65,0.00,,,0.00,Wunderground v.1.15,2013-10-18 17:37:00,
2013-10-18 10:39:00,48.0,36.8,30.29,North,5,0.0,1.0,65,0.00,,,0.00,Wunderground v.1.15,2013-10-18 17:39:00,
2013-10-18 10:40:00,48.1,36.9,30.29,North,5,0.0,0.0,65,0.00,,,0.00,Wunderground v.1.15,2013-10-18 17:40:00,
2013-10-18 10:41:00,48.3,37.1,30.29,North,5,0.0,1.0,65,0.00,,,0.00,Wunderground v.1.15,2013-10-18 17:41:00,
2013-10-18 10:43:00,48.6,37.0,30.29,North,5,0.0,2.0,64,0.00,,,0.00,Wunderground v.1.15,2013-10-18 17:43:00,
2013-10-18 10:45:00,48.8,36.8,30.28,North,5,1.0,2.0,63,0.00,,,0.00,Wunderground v.1.15,2013-10-18 17:45:00,
2013-10-18 10:46:00,49.0,36.9,30.28,North,5,0.0,2.0,63,0.00,,,0.00,Wunderground v.1.15,2013-10-18 17:46:00,
2013-10-18 10:47:00,49.0,36.9,30.29,North,5,0.0,2.0,63,0.00,,,0.00,Wunderground v.1.15,2013-10-18 17:47:00,
2013-10-18 10:48:00,49.1,37.0,30.28,North,5,0.0,2.0,63,0.00,,,0.00,Wunderground v.1.15,2013-10-18 17:48:00,
2013-10-18 10:50:00,49.3,36.8,30.28,North,5,1.0,1.0,62,0.00,,,0.00,Wunderground v.1.15,2013-10-18 17:50:00,
2013-10-18 10:51:00,49.4,36.9,30.28,North,5,1.0,2.0,62,0.00,,,0.00,Wunderground v.1.15,2013-10-18 17:51:00,
2013-10-18 10:52:00,49.4,36.9,30.28,North,5,1.0,2.0,62,0.00,,,0.00,Wunderground v.1.15,2013-10-18 17:52:00,
2013-10-18 10:53:00,49.5,36.6,30.28,North,5,2.0,2.0,61,0.00,,,0.00,Wunderground v.1.15,2013-10-18 17:53:00,
2013-10-18 10:54:00,49.6,36.7,30.28,North,5,1.0,2.0,61,0.00,,,0.00,Wunderground v.1.15,2013-10-18 17:54:00,
2013-10-18 10:55:00,49.7,36.8,30.28,North,5,0.0,2.0,61,0.00,,,0.00,Wunderground v.1.15,2013-10-18 17:55:00,
2013-10-18 10:56:00,49.8,36.9,30.28,North,5,2.0,3.0,61,0.00,,,0.00,Wunderground v.1.15,2013-10-18 17:56:00,
2013-10-18 10:57:00,49.9,36.6,30.28,North,5,1.0,4.0,60,0.00,,,0.00,Wunderground v.1.15,2013-10-18 17:57:00,
2013-10-18 10:58:00,49.9,36.6,30.28,North,5,1.0,4.0,60,0.00,,,0.00,Wunderground v.1.15,2013-10-18 17:58:00,
2013-10-18 10:59:00,50.0,36.2,30.28,North,5,2.0,4.0,59,0.00,,,0.00,Wunderground v.1.15,2013-10-18 17:59:00,
2013-10-18 11:00:00,50.0,36.2,30.28,North,5,0.0,2.0,59,0.00,,,0.00,Wunderground v.1.15,2013-10-18 18:00:00,
2013-10-18 11:01:00,50.0,36.2,30.28,North,5,2.0,2.0,59,0.00,,,0.00,Wunderground v.1.15,2013-10-18 18:01:00,
2013-10-18 11:02:00,50.1,36.7,30.28,North,5,0.0,2.0,60,0.00,,,0.00,Wunderground v.1.15,2013-10-18 18:02:00,
2013-10-18 11:03:00,50.1,36.3,30.28,North,5,0.0,2.0,59,0.00,,,0.00,Wunderground v.1.15,2013-10-18 18:03:00,
2013-10-18 11:05:00,50.1,36.3,30.28,North,5,1.0,3.0,59,0.00,,,0.00,Wunderground v.1.15,2013-10-18 18:05:00,
2013-10-18 11:06:00,50.2,36.4,30.28,North,5,1.0,3.0,59,0.00,,,0.00,Wunderground v.1.15,2013-10-18 18:06:00,
2013-10-18 11:07:00,50.3,36.5,30.28,North,5,0.0,3.0,59,0.00,,,0.00,Wunderground v.1.15,2013-10-18 18:07:00,
2013-10-18 11:08:00,50.3,36.5,30.28,North,5,0.0,3.0,59,0.00,,,0.00,Wunderground v.1.15,2013-10-18 18:08:00,
2013-10-18 11:10:00,50.5,36.7,30.28,North,5,1.0,1.0,59,0.00,,,0.00,Wunderground v.1.15,2013-10-18 18:10:00,
2013-10-18 11:11:00,50.6,36.8,30.28,North,5,0.0,1.0,59,0.00,,,0.00,Wunderground v.1.15,2013-10-18 18:11:00,
2013-10-18 11:12:00,50.7,36.9,30.28,North,5,0.0,1.0,59,0.00,,,0.00,Wunderground v.1.15,2013-10-18 18:12:00,
2013-10-18 11:13:00,50.8,37.0,30.28,North,5,0.0,1.0,59,0.00,,,0.00,Wunderground v.1.15,2013-10-18 18:13:00,
2013-10-18 11:15:00,51.2,36.9,30.28,North,5,1.0,2.0,58,0.00,,,0.00,Wunderground v.1.15,2013-10-18 18:15:00,
2013-10-18 11:16:00,51.2,36.9,30.28,North,5,1.0,3.0,58,0.00,,,0.00,Wunderground v.1.15,2013-10-18 18:16:00,
2013-10-18 11:17:00,51.4,36.7,30.27,North,5,0.0,3.0,57,0.00,,,0.00,Wunderground v.1.15,2013-10-18 18:17:00,
2013-10-18 11:18:00,51.4,37.1,30.27,North,5,1.0,3.0,58,0.00,,,0.00,Wunderground v.1.15,2013-10-18 18:18:00,
2013-10-18 11:20:00,51.5,36.8,30.27,North,5,1.0,3.0,57,0.00,,,0.00,Wunderground v.1.15,2013-10-18 18:20:00,
2013-10-18 11:21:00,51.5,36.8,30.28,North,5,1.0,3.0,57,0.00,,,0.00,Wunderground v.1.15,2013-10-18 18:21:00,
2013-10-18 11:22:00,51.5,36.8,30.28,North,5,2.0,3.0,57,0.00,,,0.00,Wunderground v.1.15,2013-10-18 18:22:00,
2013-10-18 11:23:00,51.5,36.3,30.27,North,5,1.0,3.0,56,0.00,,,0.00,Wunderground v.1.15,2013-10-18 18:23:00,
2013-10-18 11:26:00,51.4,36.7,30.27,North,5,3.0,3.0,57,0.00,,,0.00,Wunderground v.1.15,2013-10-18 18:26:00,
2013-10-18 11:27:00,51.4,36.7,30.27,North,5,2.0,4.0,57,0.00,,,0.00,Wunderground v.1.15,2013-10-18 18:27:00,
2013-10-18 11:28:00,51.3,36.6,30.27,North,5,1.0,4.0,57,0.00,,,0.00,Wunderground v.1.15,2013-10-18 18:28:00,
2013-10-18 11:31:00,51.2,36.5,30.27,North,5,1.0,3.0,57,0.00,,,0.00,Wunderground v.1.15,2013-10-18 18:31:00,
2013-10-18 11:32:00,51.1,36.4,30.27,North,5,1.0,3.0,57,0.00,,,0.00,Wunderground v.1.15,2013-10-18 18:32:00,
2013-10-18 11:34:00,51.0,36.7,30.27,North,5,2.0,5.0,58,0.00,,,0.00,Wunderground v.1.15,2013-10-18 18:34:00,
2013-10-18 11:36:00,51.0,36.7,30.27,North,5,2.0,6.0,58,0.00,,,0.00,Wunderground v.1.15,2013-10-18 18:36:00,
2013-10-18 11:37:00,50.9,36.6,30.27,North,5,2.0,6.0,58,0.00,,,0.00,Wunderground v.1.15,2013-10-18 18:37:00,
2013-10-18 11:39:00,50.9,36.6,30.27,North,5,0.0,6.0,58,0.00,,,0.00,Wunderground v.1.15,2013-10-18 18:39:00,
2013-10-18 11:41:00,51.0,36.7,30.27,North,5,0.0,2.0,58,0.00,,,0.00,Wunderground v.1.15,2013-10-18 18:41:00,
2013-10-18 11:42:00,51.0,36.7,30.27,North,5,0.0,2.0,58,0.00,,,0.00,Wunderground v.1.15,2013-10-18 18:42:00,
2013-10-18 11:44:00,51.1,36.4,30.27,North,5,0.0,3.0,57,0.00,,,0.00,Wunderground v.1.15,2013-10-18 18:44:00,
2013-10-18 11:46:00,51.2,36.9,30.27,North,5,1.0,4.0,58,0.00,,,0.00,Wunderground v.1.15,2013-10-18 18:46:00,
2013-10-18 11:47:00,51.2,36.5,30.27,North,5,4.0,5.0,57,0.00,,,0.00,Wunderground v.1.15,2013-10-18 18:47:00,
2013-10-18 11:50:00,51.2,36.9,30.27,North,5,2.0,3.0,58,0.00,,,0.00,Wunderground v.1.15,2013-10-18 18:50:00,
2013-10-18 11:51:00,51.2,36.9,30.27,North,5,1.0,3.0,58,0.00,,,0.00,Wunderground v.1.15,2013-10-18 18:51:00,
2013-10-18 11:52:00,51.3,37.0,30.27,North,5,0.0,3.0,58,0.00,,,0.00,Wunderground v.1.15,2013-10-18 18:52:00,
2013-10-18 11:55:00,51.4,36.7,30.27,North,5,3.0,5.0,57,0.00,,,0.00,Wunderground v.1.15,2013-10-18 18:55:00,
2013-10-18 11:57:00,51.4,36.7,30.27,North,5,1.0,5.0,57,0.00,,,0.00,Wunderground v.1.15,2013-10-18 18:57:00,
2013-10-18 11:58:00,51.4,37.1,30.27,North,5,3.0,5.0,58,0.00,,,0.00,Wunderground v.1.15,2013-10-18 18:58:00,
2013-10-18 12:00:00,51.7,36.9,30.27,North,5,0.0,2.0,57,0.00,,,0.00,Wunderground v.1.15,2013-10-18 19:00:00,
2013-10-18 12:02:00,51.9,37.1,30.27,North,5,2.0,4.0,57,0.00,,,0.00,Wunderground v.1.15,2013-10-18 19:02:00,
2013-10-18 12:03:00,51.9,36.7,30.27,North,5,1.0,4.0,56,0.00,,,0.00,Wunderground v.1.15,2013-10-18 19:03:00,
2013-10-18 12:06:00,52.2,37.4,30.27,North,5,2.0,4.0,57,0.00,,,0.00,Wunderground v.1.15,2013-10-18 19:06:00,
2013-10-18 12:07:00,52.3,37.5,30.27,North,5,3.0,4.0,57,0.00,,,0.00,Wunderground v.1.15,2013-10-18 19:07:00,
2013-10-18 12:08:00,52.4,37.6,30.27,North,5,2.0,4.0,57,0.00,,,0.00,Wunderground v.1.15,2013-10-18 19:08:00,
2013-10-18 12:11:00,52.7,37.4,30.26,North,5,1.0,4.0,56,0.00,,,0.00,Wunderground v.1.15,2013-10-18 19:11:00,
2013-10-18 12:12:00,52.8,37.5,30.26,North,5,3.0,4.0,56,0.00,,,0.00,Wunderground v.1.15,2013-10-18 19:12:00,
2013-10-18 12:13:00,52.9,37.6,30.26,North,5,3.0,5.0,56,0.00,,,0.00,Wunderground v.1.15,2013-10-18 19:13:00,
2013-10-18 12:14:00,52.9,37.6,30.26,North,5,3.0,5.0,56,0.00,,,0.00,Wunderground v.1.15,2013-10-18 19:14:00,
2013-10-18 12:16:00,53.0,37.3,30.26,North,5,0.0,5.0,55,0.00,,,0.00,Wunderground v.1.15,2013-10-18 19:16:00,
2013-10-18 12:17:00,53.1,37.8,30.26,North,5,4.0,5.0,56,0.00,,,0.00,Wunderground v.1.15,2013-10-18 19:17:00,
2013-10-18 12:18:00,53.2,37.9,30.26,North,5,4.0,5.0,56,0.00,,,0.00,Wunderground v.1.15,2013-10-18 19:18:00,
2013-10-18 12:19:00,53.2,37.9,30.26,North,5,2.0,5.0,56,0.00,,,0.00,Wunderground v.1.15,2013-10-18 19:19:00,
2013-10-18 12:21:00,53.3,37.5,30.26,North,5,2.0,3.0,55,0.00,,,0.00,Wunderground v.1.15,2013-10-18 19:21:00,
2013-10-18 12:22:00,53.3,38.0,30.26,North,5,2.0,4.0,56,0.00,,,0.00,Wunderground v.1.15,2013-10-18 19:22:00,
2013-10-18 12:23:00,53.3,37.5,30.26,North,5,1.0,4.0,55,0.00,,,0.00,Wunderground v.1.15,2013-10-18 19:23:00,
2013-10-18 12:24:00,53.5,37.7,30.26,North,5,0.0,4.0,55,0.00,,,0.00,Wunderground v.1.15,2013-10-18 19:24:00,
2013-10-18 12:26:00,53.7,37.9,30.26,North,5,0.0,4.0,55,0.00,,,0.00,Wunderground v.1.15,2013-10-18 19:26:00,
2013-10-18 12:27:00,53.9,38.1,30.26,North,5,2.0,4.0,55,0.00,,,0.00,Wunderground v.1.15,2013-10-18 19:27:00,
2013-10-18 12:28:00,54.0,38.2,30.26,North,5,2.0,4.0,55,0.00,,,0.00,Wunderground v.1.15,2013-10-18 19:28:00,
2013-10-18 12:29:00,54.1,37.8,30.26,North,5,2.0,4.0,54,0.00,,,0.00,Wunderground v.1.15,2013-10-18 19:29:00,
2013-10-18 12:30:00,54.2,37.9,30.26,North,5,2.0,3.0,54,0.00,,,0.00,Wunderground v.1.15,2013-10-18 19:30:00,
2013-10-18 12:32:00,54.3,38.0,30.26,North,5,4.0,4.0,54,0.00,,,0.00,Wunderground v.1.15,2013-10-18 19:32:00,
2013-10-18 12:34:00,54.3,38.0,30.26,North,5,3.0,5.0,54,0.00,,,0.00,Wunderground v.1.15,2013-10-18 19:34:00,
2013-10-18 12:35:00,54.3,38.0,30.26,North,5,4.0,5.0,54,0.00,,,0.00,Wunderground v.1.15,2013-10-18 19:35:00,
2013-10-18 12:36:00,54.3,38.0,30.26,North,5,0.0,5.0,54,0.00,,,0.00,Wunderground v.1.15,2013-10-18 19:36:00,
2013-10-18 12:37:00,54.3,38.0,30.26,North,5,1.0,5.0,54,0.00,,,0.00,Wunderground v.1.15,2013-10-18 19:37:00,
2013-10-18 12:38:00,54.3,38.0,30.26,North,5,0.0,5.0,54,0.00,,,0.00,Wunderground v.1.15,2013-10-18 19:38:00,
2013-10-18 12:39:00,54.3,38.0,30.25,North,5,0.0,5.0,54,0.00,,,0.00,Wunderground v.1.15,2013-10-18 19:39:00,
2013-10-18 12:40:00,54.4,38.1,30.26,North,5,1.0,3.0,54,0.00,,,0.00,Wunderground v.1.15,2013-10-18 19:40:00,
2013-10-18 12:42:00,54.5,38.2,30.25,North,5,0.0,3.0,54,0.00,,,0.00,Wunderground v.1.15,2013-10-18 19:42:00,
2013-10-18 12:43:00,54.5,38.2,30.25,North,5,0.0,3.0,54,0.00,,,0.00,Wunderground v.1.15,2013-10-18 19:43:00,
2013-10-18 12:44:00,54.6,38.3,30.25,North,5,3.0,4.0,54,0.00,,,0.00,Wunderground v.1.15,2013-10-18 19:44:00,
2013-10-18 12:45:00,54.7,38.4,30.25,North,5,5.0,5.0,54,0.00,,,0.00,Wunderground v.1.15,2013-10-18 19:45:00,
2013-10-18 12:46:00,54.7,38.4,30.25,North,5,3.0,5.0,54,0.00,,,0.00,Wunderground v.1.15,2013-10-18 19:46:00,
2013-10-18 12:47:00,54.8,38.5,30.25,North,5,2.0,5.0,54,0.00,,,0.00,Wunderground v.1.15,2013-10-18 19:47:00,
2013-10-18 12:48:00,54.8,38.5,30.25,North,5,0.0,5.0,54,0.00,,,0.00,Wunderground v.1.15,2013-10-18 19:48:00,
2013-10-18 12:49:00,54.8,38.5,30.25,North,5,0.0,5.0,54,0.00,,,0.00,Wunderground v.1.15,2013-10-18 19:49:00,
2013-10-18 12:51:00,55.0,38.2,30.25,North,5,0.0,2.0,53,0.00,,,0.00,Wunderground v.1.15,2013-10-18 19:51:00,
2013-10-18 12:52:00,55.1,38.3,30.25,North,5,0.0,2.0,53,0.00,,,0.00,Wunderground v.1.15,2013-10-18 19:52:00,
2013-10-18 12:53:00,55.2,38.4,30.25,North,5,1.0,2.0,53,0.00,,,0.00,Wunderground v.1.15,2013-10-18 19:53:00,
2013-10-18 12:54:00,55.3,38.4,30.25,North,5,1.0,2.0,53,0.00,,,0.00,Wunderground v.1.15,2013-10-18 19:54:00,
2013-10-18 12:56:00,55.5,38.6,30.25,North,5,1.0,2.0,53,0.00,,,0.00,Wunderground v.1.15,2013-10-18 19:56:00,
2013-10-18 12:57:00,55.7,38.8,30.25,North,5,0.0,2.0,53,0.00,,,0.00,Wunderground v.1.15,2013-10-18 19:57:00,
2013-10-18 12:58:00,55.8,38.4,30.25,North,5,4.0,4.0,52,0.00,,,0.00,Wunderground v.1.15,2013-10-18 19:58:00,
2013-10-18 13:00:00,56.1,38.7,30.25,North,5,0.0,1.0,52,0.00,,,0.00,Wunderground v.1.15,2013-10-18 20:00:00,
2013-10-18 13:01:00,56.3,38.4,30.25,North,5,0.0,1.0,51,0.00,,,0.00,Wunderground v.1.15,2013-10-18 20:01:00,
2013-10-18 13:02:00,56.5,38.6,30.25,North,5,2.0,3.0,51,0.00,,,0.00,Wunderground v.1.15,2013-10-18 20:02:00,
2013-10-18 13:03:00,56.5,38.6,30.25,North,5,1.0,3.0,51,0.00,,,0.00,Wunderground v.1.15,2013-10-18 20:03:00,
2013-10-18 13:05:00,56.8,38.3,30.25,North,5,2.0,4.0,50,0.00,,,0.00,Wunderground v.1.15,2013-10-18 20:05:00,
2013-10-18 13:06:00,56.8,38.3,30.25,North,5,2.0,4.0,50,0.00,,,0.00,Wunderground v.1.15,2013-10-18 20:06:00,
2013-10-18 13:08:00,56.8,38.3,30.25,North,5,0.0,4.0,50,0.00,,,0.00,Wunderground v.1.15,2013-10-18 20:08:00,
2013-10-18 13:10:00,57.0,38.5,30.25,North,5,1.0,2.0,50,0.00,,,0.00,Wunderground v.1.15,2013-10-18 20:10:00,
2013-10-18 13:11:00,57.1,39.1,30.25,North,5,0.0,2.0,51,0.00,,,0.00,Wunderground v.1.15,2013-10-18 20:11:00,
2013-10-18 13:13:00,57.3,38.8,30.25,North,5,1.0,3.0,50,0.00,,,0.00,Wunderground v.1.15,2013-10-18 20:13:00,
2013-10-18 13:15:00,57.6,39.1,30.25,North,5,0.0,3.0,50,0.00,,,0.00,Wunderground v.1.15,2013-10-18 20:15:00,
2013-10-18 13:16:00,57.6,39.1,30.24,North,5,0.0,3.0,50,0.00,,,0.00,Wunderground v.1.15,2013-10-18 20:16:00,
2013-10-18 13:18:00,57.7,38.7,30.24,North,5,0.0,3.0,49,0.00,,,0.00,Wunderground v.1.15,2013-10-18 20:18:00,
2013-10-18 13:19:00,57.7,38.7,30.24,North,5,0.0,3.0,49,0.00,,,0.00,Wunderground v.1.15,2013-10-18 20:19:00,
2013-10-18 13:22:00,57.6,38.0,30.24,North,5,1.0,2.0,48,0.00,,,0.00,Wunderground v.1.15,2013-10-18 20:22:00,
2013-10-18 13:23:00,57.5,38.5,30.24,North,5,2.0,2.0,49,0.00,,,0.00,Wunderground v.1.15,2013-10-18 20:23:00,
2013-10-18 13:24:00,57.5,38.5,30.24,North,5,0.0,2.0,49,0.00,,,0.00,Wunderground v.1.15,2013-10-18 20:24:00,
2013-10-18 13:27:00,57.6,38.6,30.24,North,5,2.0,4.0,49,0.00,,,0.00,Wunderground v.1.15,2013-10-18 20:27:00,
2013-10-18 13:28:00,57.6,38.0,30.24,North,5,0.0,6.0,48,0.00,,,0.00,Wunderground v.1.15,2013-10-18 20:28:00,
2013-10-18 13:29:00,57.6,38.0,30.24,North,5,1.0,6.0,48,0.00,,,0.00,Wunderground v.1.15,2013-10-18 20:29:00,
2013-10-18 13:32:00,57.6,38.6,30.24,North,5,3.0,3.0,49,0.00,,,0.00,Wunderground v.1.15,2013-10-18 20:32:00,
2013-10-18 13:33:00,57.6,38.6,30.24,North,5,2.0,3.0,49,0.00,,,0.00,Wunderground v.1.15,2013-10-18 20:33:00,
2013-10-18 13:34:00,57.6,38.6,30.24,North,5,1.0,3.0,49,0.00,,,0.00,Wunderground v.1.15,2013-10-18 20:34:00,
2013-10-18 13:37:00,57.9,38.8,30.24,North,5,2.0,3.0,49,0.00,,,0.00,Wunderground v.1.15,2013-10-18 20:37:00,
2013-10-18 13:38:00,58.0,38.4,30.24,North,5,2.0,4.0,48,0.00,,,0.00,Wunderground v.1.15,2013-10-18 20:38:00,
2013-10-18 13:39:00,57.9,38.3,30.24,North,5,2.0,4.0,48,0.00,,,0.00,Wunderground v.1.15,2013-10-18 20:39:00,
2013-10-18 13:40:00,57.8,38.2,30.23,North,5,2.0,3.0,48,0.00,,,0.00,Wunderground v.1.15,2013-10-18 20:40:00,
2013-10-18 13:43:00,57.4,38.4,30.23,North,5,0.0,4.0,49,0.00,,,0.00,Wunderground v.1.15,2013-10-18 20:43:00,
2013-10-18 13:44:00,57.3,38.3,30.23,North,5,2.0,4.0,49,0.00,,,0.00,Wunderground v.1.15,2013-10-18 20:44:00,
2013-10-18 13:45:00,57.2,38.2,30.23,North,5,0.0,4.0,49,0.00,,,0.00,Wunderground v.1.15,2013-10-18 20:45:00,
2013-10-18 13:48:00,57.3,38.3,30.23,North,5,2.0,4.0,49,0.00,,,0.00,Wunderground v.1.15,2013-10-18 20:48:00,
2013-10-18 13:49:00,57.3,38.8,30.23,North,5,2.0,4.0,50,0.00,,,0.00,Wunderground v.1.15,2013-10-18 20:49:00,
2013-10-18 13:51:00,57.6,38.6,30.23,North,5,0.0,2.0,49,0.00,,,0.00,Wunderground v.1.15,2013-10-18 20:51:00,
2013-10-18 13:54:00,58.0,38.9,30.22,North,5,4.0,4.0,49,0.00,,,0.00,Wunderground v.1.15,2013-10-18 20:54:00,
2013-10-18 13:55:00,58.1,39.0,30.22,North,5,3.0,5.0,49,0.00,,,0.00,Wunderground v.1.15,2013-10-18 20:55:00,
2013-10-18 13:57:00,58.4,38.8,30.22,North,5,1.0,5.0,48,0.00,,,0.00,Wunderground v.1.15,2013-10-18 20:57:00,
2013-10-18 13:59:00,58.5,38.9,30.22,North,5,3.0,5.0,48,0.00,,,0.00,Wunderground v.1.15,2013-10-18 20:59:00,
2013-10-18 14:00:00,58.5,38.9,30.22,North,5,3.0,4.0,48,0.00,,,0.00,Wunderground v.1.15,2013-10-18 21:00:00,
2013-10-18 14:02:00,58.5,38.9,30.22,North,5,2.0,5.0,48,0.00,,,0.00,Wunderground v.1.15,2013-10-18 21:02:00,
2013-10-18 14:04:00,58.4,38.8,30.22,North,5,0.0,5.0,48,0.00,,,0.00,Wunderground v.1.15,2013-10-18 21:04:00,
2013-10-18 14:05:00,58.4,38.8,30.22,North,5,2.0,5.0,48,0.00,,,0.00,Wunderground v.1.15,2013-10-18 21:05:00,
2013-10-18 14:07:00,58.6,39.0,30.22,North,5,2.0,5.0,48,0.00,,,0.00,Wunderground v.1.15,2013-10-18 21:07:00,
2013-10-18 14:09:00,58.7,39.0,30.22,North,5,3.0,5.0,48,0.00,,,0.00,Wunderground v.1.15,2013-10-18 21:09:00,
2013-10-18 14:10:00,58.7,39.0,30.22,North,5,1.0,2.0,48,0.00,,,0.00,Wunderground v.1.15,2013-10-18 21:10:00,
2013-10-18 14:12:00,58.8,38.6,30.22,North,5,0.0,2.0,47,0.00,,,0.00,Wunderground v.1.15,2013-10-18 21:12:00,
2013-10-18 14:14:00,58.8,39.1,30.22,North,5,0.0,2.0,48,0.00,,,0.00,Wunderground v.1.15,2013-10-18 21:14:00,
2013-10-18 14:15:00,58.8,39.1,30.22,North,5,0.0,2.0,48,0.00,,,0.00,Wunderground v.1.15,2013-10-18 21:15:00,
2013-10-18 14:18:00,59.0,38.2,30.22,North,5,4.0,5.0,46,0.00,,,0.00,Wunderground v.1.15,2013-10-18 21:18:00,
2013-10-18 14:20:00,59.0,38.2,30.22,North,5,2.0,2.0,46,0.00,,,0.00,Wunderground v.1.15,2013-10-18 21:20:00,
2013-10-18 14:21:00,58.9,38.1,30.21,North,5,1.0,3.0,46,0.00,,,0.00,Wunderground v.1.15,2013-10-18 21:21:00,
2013-10-18 14:23:00,58.8,38.1,30.22,North,5,5.0,5.0,46,0.00,,,0.00,Wunderground v.1.15,2013-10-18 21:23:00,
2013-10-18 14:25:00,59.0,38.2,30.21,North,5,4.0,7.0,46,0.00,,,0.00,Wunderground v.1.15,2013-10-18 21:25:00,
2013-10-18 14:26:00,58.9,37.6,30.21,North,5,6.0,7.0,45,0.00,,,0.00,Wunderground v.1.15,2013-10-18 21:26:00,
2013-10-18 14:29:00,58.9,38.1,30.21,NE,39,5.0,7.0,46,0.00,,,0.00,Wunderground v.1.15,2013-10-18 21:29:00,
2013-10-18 14:30:00,59.0,37.7,30.21,NE,56,4.0,6.0,45,0.00,,,0.00,Wunderground v.1.15,2013-10-18 21:30:00,
2013-10-18 14:31:00,59.0,37.7,30.21,NE,56,3.0,6.0,45,0.00,,,0.00,Wunderground v.1.15,2013-10-18 21:31:00,
2013-10-18 14:34:00,59.0,37.7,30.21,NE,56,3.0,6.0,45,0.00,,,0.00,Wunderground v.1.15,2013-10-18 21:34:00,
2013-10-18 14:35:00,58.9,38.1,30.21,NE,56,1.0,6.0,46,0.00,,,0.00,Wunderground v.1.15,2013-10-18 21:35:00,
2013-10-18 14:36:00,58.8,38.1,30.21,NE,56,0.0,6.0,46,0.00,,,0.00,Wunderground v.1.15,2013-10-18 21:36:00,
2013-10-18 14:37:00,58.8,38.1,30.21,NE,56,0.0,6.0,46,0.00,,,0.00,Wunderground v.1.15,2013-10-18 21:37:00,
2013-10-18 14:39:00,58.8,38.1,30.21,NE,56,0.0,6.0,46,0.00,,,0.00,Wunderground v.1.15,2013-10-18 21:39:00,
2013-10-18 14:40:00,58.9,38.7,30.21,NE,56,1.0,2.0,47,0.00,,,0.00,Wunderground v.1.15,2013-10-18 21:40:00,
2013-10-18 14:41:00,58.9,38.7,30.21,NE,56,1.0,2.0,47,0.00,,,0.00,Wunderground v.1.15,2013-10-18 21:41:00,
2013-10-18 14:42:00,58.9,38.7,30.21,NE,56,2.0,5.0,47,0.00,,,0.00,Wunderground v.1.15,2013-10-18 21:42:00,
2013-10-18 14:44:00,59.1,38.9,30.21,NE,56,1.0,5.0,47,0.00,,,0.00,Wunderground v.1.15,2013-10-18 21:44:00,
2013-10-18 14:45:00,59.2,39.5,30.20,NE,56,2.0,5.0,48,0.00,,,0.00,Wunderground v.1.15,2013-10-18 21:45:00,
2013-10-18 14:46:00,59.3,39.1,30.20,NE,56,4.0,5.0,47,0.00,,,0.00,Wunderground v.1.15,2013-10-18 21:46:00,
2013-10-18 14:47:00,59.4,39.1,30.20,ENE,57,3.0,5.0,47,0.00,,,0.00,Wunderground v.1.15,2013-10-18 21:47:00,
2013-10-18 14:49:00,59.5,39.2,30.20,ENE,57,5.0,5.0,47,0.00,,,0.00,Wunderground v.1.15,2013-10-18 21:49:00,
2013-10-18 14:50:00,59.6,39.3,30.20,ENE,57,4.0,5.0,47,0.00,,,0.00,Wunderground v.1.15,2013-10-18 21:50:00,
2013-10-18 14:51:00,59.6,39.3,30.20,ENE,59,3.0,5.0,47,0.00,,,0.00,Wunderground v.1.15,2013-10-18 21:51:00,
2013-10-18 14:52:00,59.8,39.5,30.20,ENE,72,2.0,5.0,47,0.00,,,0.00,Wunderground v.1.15,2013-10-18 21:52:00,
2013-10-18 14:55:00,60.2,39.3,30.20,ENE,78,3.0,5.0,46,0.00,,,0.00,Wunderground v.1.15,2013-10-18 21:55:00,
2013-10-18 14:56:00,60.3,39.4,30.20,East,82,2.0,6.0,46,0.00,,,0.00,Wunderground v.1.15,2013-10-18 21:56:00,
2013-10-18 14:57:00,60.3,38.9,30.20,East,82,0.0,6.0,45,0.00,,,0.00,Wunderground v.1.15,2013-10-18 21:57:00,
2013-10-18 14:58:00,60.3,38.9,30.20,East,82,3.0,6.0,45,0.00,,,0.00,Wunderground v.1.15,2013-10-18 21:58:00,
2013-10-18 15:00:00,60.3,38.9,30.20,East,83,0.0,3.0,45,0.00,,,0.00,Wunderground v.1.15,2013-10-18 22:00:00,
2013-10-18 15:01:00,60.3,38.9,30.20,East,83,0.0,3.0,45,0.00,,,0.00,Wunderground v.1.15,2013-10-18 22:01:00,
2013-10-18 15:02:00,60.3,38.9,30.20,East,83,1.0,3.0,45,0.00,,,0.00,Wunderground v.1.15,2013-10-18 22:02:00,
2013-10-18 15:03:00,60.4,38.9,30.20,East,83,2.0,3.0,45,0.00,,,0.00,Wunderground v.1.15,2013-10-18 22:03:00,
2013-10-18 15:04:00,60.4,39.5,30.20,East,84,6.0,6.0,46,0.00,,,0.00,Wunderground v.1.15,2013-10-18 22:04:00,
2013-10-18 15:06:00,60.4,39.5,30.20,East,89,5.0,6.0,46,0.00,,,0.00,Wunderground v.1.15,2013-10-18 22:06:00,
2013-10-18 15:07:00,60.4,39.5,30.20,East,90,4.0,6.0,46,0.00,,,0.00,Wunderground v.1.15,2013-10-18 22:07:00,
2013-10-18 15:08:00,60.4,39.5,30.20,East,89,2.0,6.0,46,0.00,,,0.00,Wunderground v.1.15,2013-10-18 22:08:00,
2013-10-18 15:10:00,60.5,39.6,30.20,East,94,4.0,5.0,46,0.00,,,0.00,Wunderground v.1.15,2013-10-18 22:10:00,
2013-10-18 15:11:00,60.5,39.0,30.20,East,94,1.0,5.0,45,0.00,,,0.00,Wunderground v.1.15,2013-10-18 22:11:00,
2013-10-18 15:12:00,60.6,39.1,30.20,East,94,2.0,5.0,45,0.00,,,0.00,Wunderground v.1.15,2013-10-18 22:12:00,
2013-10-18 15:13:00,60.6,39.1,30.20,East,94,5.0,6.0,45,0.00,,,0.00,Wunderground v.1.15,2013-10-18 22:13:00,
2013-10-18 15:15:00,60.5,39.0,30.20,East,94,4.0,6.0,45,0.00,,,0.00,Wunderground v.1.15,2013-10-18 22:15:00,
2013-10-18 15:16:00,60.5,39.0,30.20,East,94,0.0,6.0,45,0.00,,,0.00,Wunderground v.1.15,2013-10-18 22:16:00,
2013-10-18 15:17:00,60.5,39.0,30.20,East,94,4.0,6.0,45,0.00,,,0.00,Wunderground v.1.15,2013-10-18 22:17:00,
2013-10-18 15:18:00,60.6,39.1,30.20,East,94,4.0,6.0,45,0.00,,,0.00,Wunderground v.1.15,2013-10-18 22:18:00,
2013-10-18 15:19:00,60.6,39.1,30.20,East,94,5.0,6.0,45,0.00,,,0.00,Wunderground v.1.15,2013-10-18 22:19:00,
2013-10-18 15:20:00,60.6,38.6,30.20,East,94,1.0,3.0,44,0.00,,,0.00,Wunderground v.1.15,2013-10-18 22:20:00,
2013-10-18 15:21:00,60.7,38.6,30.20,East,94,2.0,5.0,44,0.00,,,0.00,Wunderground v.1.15,2013-10-18 22:21:00,
2013-10-18 15:22:00,60.7,38.6,30.20,East,94,2.0,5.0,44,0.00,,,0.00,Wunderground v.1.15,2013-10-18 22:22:00,
2013-10-18 15:24:00,60.8,39.3,30.20,East,94,0.0,5.0,45,0.00,,,0.00,Wunderground v.1.15,2013-10-18 22:24:00,
2013-10-18 15:25:00,60.9,39.4,30.19,East,94,0.0,5.0,45,0.00,,,0.00,Wunderground v.1.15,2013-10-18 22:25:00,
2013-10-18 15:26:00,61.1,39.6,30.20,East,94,0.0,5.0,45,0.00,,,0.00,Wunderground v.1.15,2013-10-18 22:26:00,
2013-10-18 15:27:00,61.2,39.1,30.20,East,98,6.0,7.0,44,0.00,,,0.00,Wunderground v.1.15,2013-10-18 22:27:00,
2013-10-18 15:29:00,61.2,38.5,30.20,East,98,2.0,7.0,43,0.00,,,0.00,Wunderground v.1.15,2013-10-18 22:29:00,
2013-10-18 15:30:00,61.2,39.1,30.20,East,98,0.0,5.0,44,0.00,,,0.00,Wunderground v.1.15,2013-10-18 22:30:00,
2013-10-18 15:31:00,61.2,39.1,30.19,East,98,4.0,5.0,44,0.00,,,0.00,Wunderground v.1.15,2013-10-18 22:31:00,
2013-10-18 15:33:00,61.2,39.1,30.20,East,98,2.0,5.0,44,0.00,,,0.00,Wunderground v.1.15,2013-10-18 22:33:00,
2013-10-18 15:34:00,61.3,39.2,30.19,East,98,0.0,5.0,44,0.00,,,0.00,Wunderground v.1.15,2013-10-18 22:34:00,
2013-10-18 15:36:00,61.3,39.2,30.20,East,98,2.0,5.0,44,0.00,,,0.00,Wunderground v.1.15,2013-10-18 22:36:00,
2013-10-18 15:38:00,61.2,39.1,30.19,East,98,4.0,5.0,44,0.00,,,0.00,Wunderground v.1.15,2013-10-18 22:38:00,
2013-10-18 15:39:00,61.0,39.5,30.19,East,98,2.0,6.0,45,0.00,,,0.00,Wunderground v.1.15,2013-10-18 22:39:00,
2013-10-18 15:41:00,60.8,39.3,30.19,East,98,2.0,5.0,45,0.00,,,0.00,Wunderground v.1.15,2013-10-18 22:41:00,
2013-10-18 15:43:00,60.7,39.2,30.19,East,98,0.0,5.0,45,0.00,,,0.00,Wunderground v.1.15,2013-10-18 22:43:00,
2013-10-18 15:44:00,60.7,39.2,30.19,East,98,0.0,5.0,45,0.00,,,0.00,Wunderground v.1.15,2013-10-18 22:44:00,
2013-10-18 15:45:00,60.7,39.2,30.19,East,98,1.0,5.0,45,0.00,,,0.00,Wunderground v.1.15,2013-10-18 22:45:00,
2013-10-18 15:46:00,60.7,39.2,30.19,East,98,0.0,5.0,45,0.00,,,0.00,Wunderground v.1.15,2013-10-18 22:46:00,
2013-10-18 15:47:00,60.7,39.2,30.19,East,98,0.0,5.0,45,0.00,,,0.00,Wunderground v.1.15,2013-10-18 22:47:00,
2013-10-18 15:48:00,60.7,39.8,30.19,East,98,5.0,6.0,46,0.00,,,0.00,Wunderground v.1.15,2013-10-18 22:48:00,
2013-10-18 15:49:00,60.7,39.8,30.19,East,98,4.0,9.0,46,0.00,,,0.00,Wunderground v.1.15,2013-10-18 22:49:00,
2013-10-18 15:50:00,60.5,39.6,30.19,East,98,0.0,2.0,46,0.00,,,0.00,Wunderground v.1.15,2013-10-18 22:50:00,
2013-10-18 15:51:00,60.5,39.6,30.19,East,98,2.0,4.0,46,0.00,,,0.00,Wunderground v.1.15,2013-10-18 22:51:00,
2013-10-18 15:52:00,60.5,39.6,30.19,East,98,0.0,4.0,46,0.00,,,0.00,Wunderground v.1.15,2013-10-18 22:52:00,
2013-10-18 15:53:00,60.5,39.6,30.19,East,98,6.0,6.0,46,0.00,,,0.00,Wunderground v.1.15,2013-10-18 22:53:00,
2013-10-18 15:54:00,60.5,39.6,30.19,East,98,1.0,6.0,46,0.00,,,0.00,Wunderground v.1.15,2013-10-18 22:54:00,
2013-10-18 15:55:00,60.5,39.6,30.19,East,98,1.0,6.0,46,0.00,,,0.00,Wunderground v.1.15,2013-10-18 22:55:00,
2013-10-18 15:56:00,60.6,39.7,30.19,East,98,6.0,6.0,46,0.00,,,0.00,Wunderground v.1.15,2013-10-18 22:56:00,
2013-10-18 15:57:00,60.7,39.8,30.19,East,98,5.0,7.0,46,0.00,,,0.00,Wunderground v.1.15,2013-10-18 22:57:00,
2013-10-18 15:59:00,60.7,39.8,30.19,East,98,6.0,7.0,46,0.00,,,0.00,Wunderground v.1.15,2013-10-18 22:59:00,
2013-10-18 16:00:00,60.8,39.9,30.19,East,101,5.0,7.0,46,0.00,,,0.00,Wunderground v.1.15,2013-10-18 23:00:00,
2013-10-18 16:01:00,60.7,39.8,30.19,East,101,4.0,7.0,46,0.00,,,0.00,Wunderground v.1.15,2013-10-18 23:01:00,
2013-10-18 16:02:00,60.7,39.8,30.19,East,101,2.0,7.0,46,0.00,,,0.00,Wunderground v.1.15,2013-10-18 23:02:00,
2013-10-18 16:04:00,60.7,39.8,30.19,East,101,2.0,7.0,46,0.00,,,0.00,Wunderground v.1.15,2013-10-18 23:04:00,
2013-10-18 16:05:00,60.7,39.8,30.19,East,101,0.0,7.0,46,0.00,,,0.00,Wunderground v.1.15,2013-10-18 23:05:00,
2013-10-18 16:06:00,60.8,39.9,30.19,East,101,1.0,7.0,46,0.00,,,0.00,Wunderground v.1.15,2013-10-18 23:06:00,
2013-10-18 16:07:00,60.9,40.0,30.19,East,101,2.0,7.0,46,0.00,,,0.00,Wunderground v.1.15,2013-10-18 23:07:00,
2013-10-18 16:09:00,61.0,39.5,30.19,East,101,0.0,7.0,45,0.00,,,0.00,Wunderground v.1.15,2013-10-18 23:09:00,
2013-10-18 16:10:00,61.1,39.6,30.19,East,101,0.0,2.0,45,0.00,,,0.00,Wunderground v.1.15,2013-10-18 23:10:00,
2013-10-18 16:11:00,61.2,39.7,30.19,East,101,0.0,2.0,45,0.00,,,0.00,Wunderground v.1.15,2013-10-18 23:11:00,
2013-10-18 16:12:00,61.3,39.8,30.19,East,101,0.0,2.0,45,0.00,,,0.00,Wunderground v.1.15,2013-10-18 23:12:00,
2013-10-18 16:14:00,61.4,39.9,30.19,East,101,1.0,2.0,45,0.00,,,0.00,Wunderground v.1.15,2013-10-18 23:14:00,
2013-10-18 16:15:00,61.5,39.4,30.19,East,101,4.0,5.0,44,0.00,,,0.00,Wunderground v.1.15,2013-10-18 23:15:00,
2013-10-18 16:16:00,61.5,39.4,30.19,East,101,1.0,5.0,44,0.00,,,0.00,Wunderground v.1.15,2013-10-18 23:16:00,
2013-10-18 16:17:00,61.5,39.4,30.19,East,101,0.0,5.0,44,0.00,,,0.00,Wunderground v.1.15,2013-10-18 23:17:00,
2013-10-18 16:19:00,61.3,39.2,30.19,East,101,0.0,5.0,44,0.00,,,0.00,Wunderground v.1.15,2013-10-18 23:19:00,
2013-10-18 16:21:00,61.2,39.1,30.19,East,101,0.0,1.0,44,0.00,,,0.00,Wunderground v.1.15,2013-10-18 23:21:00,
2013-10-18 16:22:00,61.3,39.2,30.19,East,101,0.0,1.0,44,0.00,,,0.00,Wunderground v.1.15,2013-10-18 23:22:00,
2013-10-18 16:24:00,61.5,39.4,30.19,East,101,0.0,1.0,44,0.00,,,0.00,Wunderground v.1.15,2013-10-18 23:24:00,
2013-10-18 16:26:00,61.5,39.4,30.19,East,101,1.0,2.0,44,0.00,,,0.00,Wunderground v.1.15,2013-10-18 23:26:00,
2013-10-18 16:27:00,61.4,39.3,30.18,East,101,4.0,4.0,44,0.00,,,0.00,Wunderground v.1.15,2013-10-18 23:27:00,
2013-10-18 16:30:00,61.2,39.1,30.18,East,101,1.0,1.0,44,0.00,,,0.00,Wunderground v.1.15,2013-10-18 23:30:00,
2013-10-18 16:31:00,61.1,39.0,30.18,East,101,4.0,4.0,44,0.00,,,0.00,Wunderground v.1.15,2013-10-18 23:31:00,
2013-10-18 16:32:00,61.0,38.9,30.18,East,101,2.0,5.0,44,0.00,,,0.00,Wunderground v.1.15,2013-10-18 23:32:00,
2013-10-18 16:33:00,61.0,38.9,30.19,East,101,0.0,5.0,44,0.00,,,0.00,Wunderground v.1.15,2013-10-18 23:33:00,
2013-10-18 16:35:00,60.8,39.3,30.18,East,101,0.0,5.0,45,0.00,,,0.00,Wunderground v.1.15,2013-10-18 23:35:00,
2013-10-18 16:36:00,60.7,39.2,30.18,East,101,0.0,5.0,45,0.00,,,0.00,Wunderground v.1.15,2013-10-18 23:36:00,
2013-10-18 16:38:00,60.6,39.1,30.18,East,101,2.0,5.0,45,0.00,,,0.00,Wunderground v.1.15,2013-10-18 23:38:00,
2013-10-18 16:40:00,60.6,39.1,30.18,East,101,2.0,5.0,45,0.00,,,0.00,Wunderground v.1.15,2013-10-18 23:40:00,
2013-10-18 16:41:00,60.6,39.1,30.18,East,101,2.0,5.0,45,0.00,,,0.00,Wunderground v.1.15,2013-10-18 23:41:00,
2013-10-18 16:43:00,60.8,39.3,30.18,East,101,0.0,5.0,45,0.00,,,0.00,Wunderground v.1.15,2013-10-18 23:43:00,
2013-10-18 16:45:00,61.1,39.6,30.18,East,101,0.0,5.0,45,0.00,,,0.00,Wunderground v.1.15,2013-10-18 23:45:00,
2013-10-18 16:46:00,61.1,39.6,30.18,East,101,0.0,5.0,45,0.00,,,0.00,Wunderground v.1.15,2013-10-18 23:46:00,
2013-10-18 16:48:00,61.3,39.8,30.18,East,101,0.0,5.0,45,0.00,,,0.00,Wunderground v.1.15,2013-10-18 23:48:00,
2013-10-18 16:51:00,61.5,39.4,30.18,East,101,0.0,0.0,44,0.00,,,0.00,Wunderground v.1.15,2013-10-18 23:51:00,
2013-10-18 16:53:00,61.6,40.0,30.19,East,101,0.0,2.0,45,0.00,,,0.00,Wunderground v.1.15,2013-10-18 23:53:00,
2013-10-18 16:54:00,61.7,39.6,30.18,East,101,1.0,2.0,44,0.00,,,0.00,Wunderground v.1.15,2013-10-18 23:54:00,
2013-10-18 16:56:00,61.6,39.5,30.18,East,101,2.0,2.0,44,0.00,,,0.00,Wunderground v.1.15,2013-10-18 23:56:00,
2013-10-18 16:58:00,61.5,39.4,30.18,East,101,1.0,4.0,44,0.00,,,0.00,Wunderground v.1.15,2013-10-18 23:58:00,
2013-10-18 16:59:00,61.5,39.4,30.18,East,101,0.0,4.0,44,0.00,,,0.00,Wunderground v.1.15,2013-10-18 23:59:00,
2013-10-18 17:01:00,61.5,39.4,30.18,East,101,2.0,2.0,44,0.00,,,0.00,Wunderground v.1.15,2013-10-19 00:01:00,
2013-10-18 17:02:00,61.5,39.4,30.18,East,101,0.0,2.0,44,0.00,,,0.00,Wunderground v.1.15,2013-10-19 00:02:00,
2013-10-18 17:03:00,61.5,39.4,30.18,East,101,1.0,2.0,44,0.00,,,0.00,Wunderground v.1.15,2013-10-19 00:03:00,
2013-10-18 17:04:00,61.5,39.4,30.18,East,101,0.0,2.0,44,0.00,,,0.00,Wunderground v.1.15,2013-10-19 00:04:00,
2013-10-18 17:06:00,61.4,39.3,30.18,East,101,0.0,2.0,44,0.00,,,0.00,Wunderground v.1.15,2013-10-19 00:06:00,
2013-10-18 17:07:00,61.4,39.3,30.18,East,101,0.0,2.0,44,0.00,,,0.00,Wunderground v.1.15,2013-10-19 00:07:00,
2013-10-18 17:08:00,61.4,39.3,30.18,East,101,0.0,2.0,44,0.00,,,0.00,Wunderground v.1.15,2013-10-19 00:08:00,
2013-10-18 17:09:00,61.4,39.3,30.18,East,101,0.0,2.0,44,0.00,,,0.00,Wunderground v.1.15,2013-10-19 00:09:00,
2013-10-18 17:10:00,61.4,39.3,30.18,East,101,2.0,2.0,44,0.00,,,0.00,Wunderground v.1.15,2013-10-19 00:10:00,
2013-10-18 17:12:00,61.4,39.3,30.18,East,101,1.0,2.0,44,0.00,,,0.00,Wunderground v.1.15,2013-10-19 00:12:00,
2013-10-18 17:13:00,61.3,39.2,30.18,East,101,1.0,2.0,44,0.00,,,0.00,Wunderground v.1.15,2013-10-19 00:13:00,
2013-10-18 17:15:00,61.3,39.2,30.18,East,101,1.0,2.0,44,0.00,,,0.00,Wunderground v.1.15,2013-10-19 00:15:00,
2013-10-18 17:17:00,61.3,39.2,30.18,East,101,1.0,2.0,44,0.00,,,0.00,Wunderground v.1.15,2013-10-19 00:17:00,
2013-10-18 17:18:00,61.3,39.2,30.18,East,101,1.0,2.0,44,0.00,,,0.00,Wunderground v.1.15,2013-10-19 00:18:00,
2013-10-18 17:20:00,61.3,39.2,30.18,East,101,2.0,2.0,44,0.00,,,0.00,Wunderground v.1.15,2013-10-19 00:20:00,
2013-10-18 17:22:00,61.3,39.2,30.18,East,101,0.0,2.0,44,0.00,,,0.00,Wunderground v.1.15,2013-10-19 00:22:00,
2013-10-18 17:23:00,61.3,39.2,30.18,East,101,1.0,2.0,44,0.00,,,0.00,Wunderground v.1.15,2013-10-19 00:23:00,
2013-10-18 17:25:00,61.3,39.2,30.18,East,101,0.0,2.0,44,0.00,,,0.00,Wunderground v.1.15,2013-10-19 00:25:00,
2013-10-18 17:26:00,61.3,39.2,30.18,East,101,0.0,2.0,44,0.00,,,0.00,Wunderground v.1.15,2013-10-19 00:26:00,
2013-10-18 17:28:00,61.2,39.1,30.18,East,101,0.0,2.0,44,0.00,,,0.00,Wunderground v.1.15,2013-10-19 00:28:00,
2013-10-18 17:31:00,61.2,39.1,30.17,East,101,1.0,1.0,44,0.00,,,0.00,Wunderground v.1.15,2013-10-19 00:31:00,
2013-10-18 17:33:00,61.1,39.0,30.17,East,101,1.0,1.0,44,0.00,,,0.00,Wunderground v.1.15,2013-10-19 00:33:00,
2013-10-18 17:36:00,61.0,39.5,30.17,East,101,0.0,1.0,45,0.00,,,0.00,Wunderground v.1.15,2013-10-19 00:36:00,
2013-10-18 17:37:00,61.0,39.5,30.17,East,101,0.0,1.0,45,0.00,,,0.00,Wunderground v.1.15,2013-10-19 00:37:00,
2013-10-18 17:38:00,61.0,40.1,30.17,East,101,0.0,1.0,46,0.00,,,0.00,Wunderground v.1.15,2013-10-19 00:38:00,
2013-10-18 17:39:00,60.9,39.4,30.17,East,101,0.0,1.0,45,0.00,,,0.00,Wunderground v.1.15,2013-10-19 00:39:00,
2013-10-18 17:42:00,60.7,39.2,30.17,East,101,1.0,1.0,45,0.00,,,0.00,Wunderground v.1.15,2013-10-19 00:42:00,
2013-10-18 17:43:00,60.6,39.1,30.17,East,101,0.0,1.0,45,0.00,,,0.00,Wunderground v.1.15,2013-10-19 00:43:00,
2013-10-18 17:44:00,60.5,39.6,30.17,East,101,0.0,1.0,46,0.00,,,0.00,Wunderground v.1.15,2013-10-19 00:44:00,
2013-10-18 17:47:00,60.4,38.9,30.17,East,101,0.0,1.0,45,0.00,,,0.00,Wunderground v.1.15,2013-10-19 00:47:00,
2013-10-18 17:48:00,60.2,39.3,30.17,East,101,0.0,1.0,46,0.00,,,0.00,Wunderground v.1.15,2013-10-19 00:48:00,
2013-10-18 17:49:00,60.2,39.3,30.17,East,101,0.0,1.0,46,0.00,,,0.00,Wunderground v.1.15,2013-10-19 00:49:00,
2013-10-18 17:52:00,59.9,39.6,30.17,East,101,0.0,1.0,47,0.00,,,0.00,Wunderground v.1.15,2013-10-19 00:52:00,
2013-10-18 17:53:00,59.8,39.5,30.17,East,101,0.0,1.0,47,0.00,,,0.00,Wunderground v.1.15,2013-10-19 00:53:00,
2013-10-18 17:54:00,59.7,40.0,30.17,East,101,0.0,1.0,48,0.00,,,0.00,Wunderground v.1.15,2013-10-19 00:54:00,
2013-10-18 17:58:00,59.0,39.9,30.17,East,101,1.0,2.0,49,0.00,,,0.00,Wunderground v.1.15,2013-10-19 00:58:00,
2013-10-18 17:59:00,58.9,39.8,30.17,East,101,1.0,2.0,49,0.00,,,0.00,Wunderground v.1.15,2013-10-19 00:59:00,
2013-10-18 18:00:00,58.8,39.7,30.17,East,101,2.0,2.0,49,0.00,,,0.00,Wunderground v.1.15,2013-10-19 01:00:00,
2013-10-18 18:03:00,58.4,39.8,30.17,East,101,2.0,2.0,50,0.00,,,0.00,Wunderground v.1.15,2013-10-19 01:03:00,
2013-10-18 18:04:00,58.3,39.7,30.17,East,101,1.0,2.0,50,0.00,,,0.00,Wunderground v.1.15,2013-10-19 01:04:00,
2013-10-18 18:05:00,58.1,40.1,30.17,East,101,2.0,2.0,51,0.00,,,0.00,Wunderground v.1.15,2013-10-19 01:05:00,
2013-10-18 18:08:00,57.4,39.9,30.17,East,101,2.0,2.0,52,0.00,,,0.00,Wunderground v.1.15,2013-10-19 01:08:00,
2013-10-18 18:09:00,57.2,39.7,30.17,East,101,2.0,4.0,52,0.00,,,0.00,Wunderground v.1.15,2013-10-19 01:09:00,
2013-10-18 18:10:00,56.9,39.9,30.17,East,101,2.0,2.0,53,0.00,,,0.00,Wunderground v.1.15,2013-10-19 01:10:00,
2013-10-18 18:13:00,56.6,39.7,30.16,East,101,2.0,2.0,53,0.00,,,0.00,Wunderground v.1.15,2013-10-19 01:13:00,
2013-10-18 18:14:00,56.5,39.6,30.17,East,101,1.0,2.0,53,0.00,,,0.00,Wunderground v.1.15,2013-10-19 01:14:00,
2013-10-18 18:15:00,56.4,40.0,30.16,East,101,2.0,4.0,54,0.00,,,0.00,Wunderground v.1.15,2013-10-19 01:15:00,
2013-10-18 18:18:00,56.0,39.6,30.16,East,101,2.0,4.0,54,0.00,,,0.00,Wunderground v.1.15,2013-10-19 01:18:00,
2013-10-18 18:19:00,55.9,40.0,30.17,East,101,4.0,4.0,55,0.00,,,0.00,Wunderground v.1.15,2013-10-19 01:19:00,
2013-10-18 18:20:00,55.8,39.9,30.17,East,101,4.0,4.0,55,0.00,,,0.00,Wunderground v.1.15,2013-10-19 01:20:00,
2013-10-18 18:23:00,55.4,40.0,30.17,East,101,4.0,5.0,56,0.00,,,0.00,Wunderground v.1.15,2013-10-19 01:23:00,
2013-10-18 18:24:00,55.2,39.8,30.17,East,101,4.0,5.0,56,0.00,,,0.00,Wunderground v.1.15,2013-10-19 01:24:00,
2013-10-18 18:25:00,55.1,39.7,30.17,East,101,5.0,5.0,56,0.00,,,0.00,Wunderground v.1.15,2013-10-19 01:25:00,
2013-10-18 18:26:00,54.8,39.8,30.17,East,101,5.0,5.0,57,0.00,,,0.00,Wunderground v.1.15,2013-10-19 01:26:00,
2013-10-18 18:28:00,54.3,39.4,30.16,East,101,4.0,6.0,57,0.00,,,0.00,Wunderground v.1.15,2013-10-19 01:28:00,
2013-10-18 18:29:00,54.1,39.6,30.17,East,101,4.0,6.0,58,0.00,,,0.00,Wunderground v.1.15,2013-10-19 01:29:00,
2013-10-18 18:30:00,54.0,39.5,30.16,East,101,4.0,4.0,58,0.00,,,0.00,Wunderground v.1.15,2013-10-19 01:30:00,
2013-10-18 18:31:00,53.9,39.5,30.16,East,101,2.0,5.0,58,0.00,,,0.00,Wunderground v.1.15,2013-10-19 01:31:00,
2013-10-18 18:33:00,53.1,39.1,30.16,East,101,2.0,5.0,59,0.00,,,0.00,Wunderground v.1.15,2013-10-19 01:33:00,
2013-10-18 18:34:00,52.8,38.9,30.16,East,101,2.0,5.0,59,0.00,,,0.00,Wunderground v.1.15,2013-10-19 01:34:00,
2013-10-18 18:35:00,52.7,39.2,30.16,East,101,2.0,5.0,60,0.00,,,0.00,Wunderground v.1.15,2013-10-19 01:35:00,
2013-10-18 18:36:00,52.3,38.8,30.16,East,101,2.0,5.0,60,0.00,,,0.00,Wunderground v.1.15,2013-10-19 01:36:00,
2013-10-18 18:39:00,51.4,38.4,30.16,East,101,1.0,5.0,61,0.00,,,0.00,Wunderground v.1.15,2013-10-19 01:39:00,
2013-10-18 18:40:00,51.0,38.4,30.16,East,101,2.0,2.0,62,0.00,,,0.00,Wunderground v.1.15,2013-10-19 01:40:00,
2013-10-18 18:41:00,50.8,38.2,30.16,East,101,1.0,2.0,62,0.00,,,0.00,Wunderground v.1.15,2013-10-19 01:41:00,
2013-10-18 18:42:00,50.5,38.4,30.16,East,101,1.0,4.0,63,0.00,,,0.00,Wunderground v.1.15,2013-10-19 01:42:00,
2013-10-18 18:44:00,49.9,38.2,30.16,East,101,2.0,4.0,64,0.00,,,0.00,Wunderground v.1.15,2013-10-19 01:44:00,
2013-10-18 18:45:00,49.6,38.3,30.16,East,101,4.0,4.0,65,0.00,,,0.00,Wunderground v.1.15,2013-10-19 01:45:00,
2013-10-18 18:46:00,49.6,38.3,30.16,East,101,4.0,4.0,65,0.00,,,0.00,Wunderground v.1.15,2013-10-19 01:46:00,
2013-10-18 18:47:00,49.5,38.6,30.16,East,101,2.0,4.0,66,0.00,,,0.00,Wunderground v.1.15,2013-10-19 01:47:00,
2013-10-18 18:49:00,49.7,38.8,30.16,East,101,2.0,4.0,66,0.00,,,0.00,Wunderground v.1.15,2013-10-19 01:49:00,
2013-10-18 18:50:00,49.8,38.9,30.16,East,101,2.0,4.0,66,0.00,,,0.00,Wunderground v.1.15,2013-10-19 01:50:00,
2013-10-18 18:51:00,50.0,39.1,30.16,East,101,2.0,4.0,66,0.00,,,0.00,Wunderground v.1.15,2013-10-19 01:51:00,
2013-10-18 18:52:00,50.4,39.1,30.16,East,101,2.0,4.0,65,0.00,,,0.00,Wunderground v.1.15,2013-10-19 01:52:00,
2013-10-18 18:54:00,50.8,39.1,30.16,East,101,2.0,4.0,64,0.00,,,0.00,Wunderground v.1.15,2013-10-19 01:54:00,
2013-10-18 18:55:00,50.9,39.1,30.16,East,101,2.0,4.0,64,0.00,,,0.00,Wunderground v.1.15,2013-10-19 01:55:00,
2013-10-18 18:56:00,50.8,39.1,30.16,East,101,2.0,4.0,64,0.00,,,0.00,Wunderground v.1.15,2013-10-19 01:56:00,
2013-10-18 18:58:00,50.5,38.4,30.16,East,101,2.0,4.0,63,0.00,,,0.00,Wunderground v.1.15,2013-10-19 01:58:00,
2013-10-18 18:59:00,50.3,38.6,30.16,East,101,2.0,4.0,64,0.00,,,0.00,Wunderground v.1.15,2013-10-19 01:59:00,
2013-10-18 19:00:00,50.1,38.8,30.16,East,101,2.0,4.0,65,0.00,,,0.00,Wunderground v.1.15,2013-10-19 02:00:00,
2013-10-18 19:01:00,49.9,38.6,30.16,East,101,4.0,4.0,65,0.00,,,0.00,Wunderground v.1.15,2013-10-19 02:01:00,
2013-10-18 19:03:00,49.7,38.8,30.16,East,101,4.0,4.0,66,0.00,,,0.00,Wunderground v.1.15,2013-10-19 02:03:00,
2013-10-18 19:04:00,49.7,38.8,30.16,East,101,2.0,4.0,66,0.00,,,0.00,Wunderground v.1.15,2013-10-19 02:04:00,
2013-10-18 19:05:00,49.7,38.8,30.16,East,101,1.0,4.0,66,0.00,,,0.00,Wunderground v.1.15,2013-10-19 02:05:00,
2013-10-18 19:06:00,49.7,38.8,30.16,East,101,2.0,4.0,66,0.00,,,0.00,Wunderground v.1.15,2013-10-19 02:06:00,
2013-10-18 19:07:00,49.7,38.4,30.16,East,101,1.0,4.0,65,0.00,,,0.00,Wunderground v.1.15,2013-10-19 02:07:00,
2013-10-18 19:09:00,49.4,38.1,30.16,East,101,2.0,4.0,65,0.00,,,0.00,Wunderground v.1.15,2013-10-19 02:09:00,
2013-10-18 19:10:00,49.2,38.3,30.16,East,101,2.0,2.0,66,0.00,,,0.00,Wunderground v.1.15,2013-10-19 02:10:00,
2013-10-18 19:11:00,49.1,38.2,30.16,East,101,2.0,4.0,66,0.00,,,0.00,Wunderground v.1.15,2013-10-19 02:11:00,
2013-10-18 19:12:00,49.2,38.7,30.16,East,101,2.0,4.0,67,0.00,,,0.00,Wunderground v.1.15,2013-10-19 02:12:00,
2013-10-18 19:14:00,49.6,38.7,30.16,East,101,2.0,4.0,66,0.00,,,0.00,Wunderground v.1.15,2013-10-19 02:14:00,
2013-10-18 19:15:00,49.8,38.9,30.16,East,101,4.0,4.0,66,0.00,,,0.00,Wunderground v.1.15,2013-10-19 02:15:00,
2013-10-18 19:16:00,50.1,38.8,30.16,East,101,2.0,4.0,65,0.00,,,0.00,Wunderground v.1.15,2013-10-19 02:16:00,
2013-10-18 19:17:00,50.2,38.9,30.16,East,101,2.0,4.0,65,0.00,,,0.00,Wunderground v.1.15,2013-10-19 02:17:00,
2013-10-18 19:19:00,50.8,39.1,30.16,East,101,2.0,4.0,64,0.00,,,0.00,Wunderground v.1.15,2013-10-19 02:19:00,
2013-10-18 19:20:00,51.0,39.2,30.16,East,101,2.0,4.0,64,0.00,,,0.00,Wunderground v.1.15,2013-10-19 02:20:00,
2013-10-18 19:21:00,51.4,39.2,30.16,East,101,4.0,4.0,63,0.00,,,0.00,Wunderground v.1.15,2013-10-19 02:21:00,
2013-10-18 19:22:00,51.7,39.1,30.16,East,101,4.0,4.0,62,0.00,,,0.00,Wunderground v.1.15,2013-10-19 02:22:00,
2013-10-18 19:24:00,52.1,39.1,30.16,East,101,2.0,4.0,61,0.00,,,0.00,Wunderground v.1.15,2013-10-19 02:24:00,
2013-10-18 19:25:00,52.2,39.1,30.16,East,101,4.0,4.0,61,0.00,,,0.00,Wunderground v.1.15,2013-10-19 02:25:00,
2013-10-18 19:26:00,52.1,38.6,30.16,East,101,4.0,5.0,60,0.00,,,0.00,Wunderground v.1.15,2013-10-19 02:26:00,
2013-10-18 19:27:00,52.1,38.6,30.16,East,101,4.0,5.0,60,0.00,,,0.00,Wunderground v.1.15,2013-10-19 02:27:00,
2013-10-18 19:28:00,52.0,39.0,30.16,East,101,4.0,5.0,61,0.00,,,0.00,Wunderground v.1.15,2013-10-19 02:28:00,
2013-10-18 19:29:00,51.7,38.7,30.16,East,101,4.0,5.0,61,0.00,,,0.00,Wunderground v.1.15,2013-10-19 02:29:00,
2013-10-18 19:30:00,51.4,38.4,30.16,East,101,4.0,5.0,61,0.00,,,0.00,Wunderground v.1.15,2013-10-19 02:30:00,
2013-10-18 19:31:00,51.1,38.5,30.16,East,101,4.0,5.0,62,0.00,,,0.00,Wunderground v.1.15,2013-10-19 02:31:00,
2013-10-18 19:32:00,51.0,38.4,30.16,East,101,2.0,5.0,62,0.00,,,0.00,Wunderground v.1.15,2013-10-19 02:32:00,
2013-10-18 19:33:00,50.8,38.2,30.16,East,101,4.0,5.0,62,0.00,,,0.00,Wunderground v.1.15,2013-10-19 02:33:00,
2013-10-18 19:34:00,50.8,38.7,30.16,East,101,4.0,5.0,63,0.00,,,0.00,Wunderground v.1.15,2013-10-19 02:34:00,
2013-10-18 19:36:00,51.1,38.9,30.16,East,101,5.0,5.0,63,0.00,,,0.00,Wunderground v.1.15,2013-10-19 02:36:00,
2013-10-18 19:37:00,51.4,38.8,30.16,East,101,5.0,5.0,62,0.00,,,0.00,Wunderground v.1.15,2013-10-19 02:37:00,
2013-10-18 19:38:00,51.9,39.3,30.16,East,101,5.0,5.0,62,0.00,,,0.00,Wunderground v.1.15,2013-10-19 02:38:00,
2013-10-18 19:40:00,52.3,38.8,30.16,East,101,4.0,5.0,60,0.00,,,0.00,Wunderground v.1.15,2013-10-19 02:40:00,
2013-10-18 19:41:00,52.6,39.1,30.16,East,101,5.0,5.0,60,0.00,,,0.00,Wunderground v.1.15,2013-10-19 02:41:00,
2013-10-18 19:42:00,52.8,38.9,30.16,East,101,5.0,5.0,59,0.00,,,0.00,Wunderground v.1.15,2013-10-19 02:42:00,
2013-10-18 19:43:00,52.8,38.9,30.16,East,101,5.0,6.0,59,0.00,,,0.00,Wunderground v.1.15,2013-10-19 02:43:00,
2013-10-18 19:44:00,52.5,38.6,30.16,East,101,5.0,6.0,59,0.00,,,0.00,Wunderground v.1.15,2013-10-19 02:44:00,
2013-10-18 19:45:00,52.1,38.2,30.16,East,101,4.0,6.0,59,0.00,,,0.00,Wunderground v.1.15,2013-10-19 02:45:00,
2013-10-18 19:46:00,51.8,38.3,30.16,East,101,5.0,6.0,60,0.00,,,0.00,Wunderground v.1.15,2013-10-19 02:46:00,
2013-10-18 19:47:00,51.6,38.2,30.16,East,101,5.0,6.0,60,0.00,,,0.00,Wunderground v.1.15,2013-10-19 02:47:00,
2013-10-18 19:48:00,51.4,38.4,30.16,East,101,5.0,6.0,61,0.00,,,0.00,Wunderground v.1.15,2013-10-19 02:48:00,
2013-10-18 19:49:00,51.3,38.3,30.16,East,101,4.0,6.0,61,0.00,,,0.00,Wunderground v.1.15,2013-10-19 02:49:00,
2013-10-18 19:50:00,51.2,38.2,30.16,East,101,4.0,5.0,61,0.00,,,0.00,Wunderground v.1.15,2013-10-19 02:50:00,
2013-10-18 19:51:00,51.1,38.5,30.16,East,101,4.0,5.0,62,0.00,,,0.00,Wunderground v.1.15,2013-10-19 02:51:00,
2013-10-18 19:52:00,51.1,38.5,30.16,East,101,4.0,5.0,62,0.00,,,0.00,Wunderground v.1.15,2013-10-19 02:52:00,
2013-10-18 19:53:00,51.0,38.4,30.16,East,101,4.0,5.0,62,0.00,,,0.00,Wunderground v.1.15,2013-10-19 02:53:00,
2013-10-18 19:54:00,50.9,38.3,30.16,East,101,2.0,5.0,62,0.00,,,0.00,Wunderground v.1.15,2013-10-19 02:54:00,
2013-10-18 19:55:00,50.8,38.2,30.16,East,101,4.0,5.0,62,0.00,,,0.00,Wunderground v.1.15,2013-10-19 02:55:00,
2013-10-18 19:57:00,50.6,38.1,30.16,East,101,4.0,5.0,62,0.00,,,0.00,Wunderground v.1.15,2013-10-19 02:57:00,
2013-10-18 19:58:00,50.6,38.5,30.16,East,101,2.0,5.0,63,0.00,,,0.00,Wunderground v.1.15,2013-10-19 02:58:00,
2013-10-18 20:00:00,50.7,38.6,30.16,East,101,4.0,4.0,63,0.00,,,0.00,Wunderground v.1.15,2013-10-19 03:00:00,
2013-10-18 20:02:00,50.6,38.5,30.16,East,101,2.0,5.0,63,0.00,,,0.00,Wunderground v.1.15,2013-10-19 03:02:00,
2013-10-18 20:03:00,50.6,38.5,30.16,East,101,2.0,5.0,63,0.00,,,0.00,Wunderground v.1.15,2013-10-19 03:03:00,
2013-10-18 20:05:00,50.7,38.6,30.16,East,101,4.0,5.0,63,0.00,,,0.00,Wunderground v.1.15,2013-10-19 03:05:00,
2013-10-18 20:07:00,50.7,38.1,30.16,East,101,2.0,5.0,62,0.00,,,0.00,Wunderground v.1.15,2013-10-19 03:07:00,
2013-10-18 20:08:00,50.6,38.1,30.16,East,101,4.0,5.0,62,0.00,,,0.00,Wunderground v.1.15,2013-10-19 03:08:00,
2013-10-18 20:10:00,50.2,38.1,30.16,East,101,4.0,4.0,63,0.00,,,0.00,Wunderground v.1.15,2013-10-19 03:10:00,
2013-10-18 20:12:00,50.0,37.9,30.16,East,101,2.0,4.0,63,0.00,,,0.00,Wunderground v.1.15,2013-10-19 03:12:00,
2013-10-18 20:13:00,50.1,38.4,30.17,East,101,2.0,4.0,64,0.00,,,0.00,Wunderground v.1.15,2013-10-19 03:13:00,
2013-10-18 20:15:00,50.3,38.2,30.16,East,101,4.0,4.0,63,0.00,,,0.00,Wunderground v.1.15,2013-10-19 03:15:00,
2013-10-18 20:17:00,50.3,38.2,30.16,East,101,2.0,4.0,63,0.00,,,0.00,Wunderground v.1.15,2013-10-19 03:17:00,
2013-10-18 20:18:00,50.3,38.2,30.16,East,101,2.0,4.0,63,0.00,,,0.00,Wunderground v.1.15,2013-10-19 03:18:00,
2013-10-18 20:19:00,50.3,38.2,30.16,East,101,2.0,4.0,63,0.00,,,0.00,Wunderground v.1.15,2013-10-19 03:19:00,
2013-10-18 20:20:00,50.5,38.4,30.16,East,101,2.0,4.0,63,0.00,,,0.00,Wunderground v.1.15,2013-10-19 03:20:00,
2013-10-18 20:22:00,50.4,38.3,30.16,East,101,4.0,4.0,63,0.00,,,0.00,Wunderground v.1.15,2013-10-19 03:22:00,
2013-10-18 20:24:00,49.8,37.7,30.16,East,101,4.0,4.0,63,0.00,,,0.00,Wunderground v.1.15,2013-10-19 03:24:00,
2013-10-18 20:27:00,48.8,37.6,30.16,East,101,4.0,4.0,65,0.00,,,0.00,Wunderground v.1.15,2013-10-19 03:27:00,
2013-10-18 20:28:00,48.8,37.9,30.16,East,101,2.0,4.0,66,0.00,,,0.00,Wunderground v.1.15,2013-10-19 03:28:00,
2013-10-18 20:29:00,48.9,38.0,30.16,East,101,4.0,4.0,66,0.00,,,0.00,Wunderground v.1.15,2013-10-19 03:29:00,
2013-10-18 20:32:00,49.1,38.2,30.17,East,101,4.0,4.0,66,0.00,,,0.00,Wunderground v.1.15,2013-10-19 03:32:00,
2013-10-18 20:33:00,49.3,38.4,30.16,East,101,4.0,4.0,66,0.00,,,0.00,Wunderground v.1.15,2013-10-19 03:33:00,
2013-10-18 20:34:00,49.5,38.2,30.16,East,101,2.0,4.0,65,0.00,,,0.00,Wunderground v.1.15,2013-10-19 03:34:00,
2013-10-18 20:37:00,49.6,37.9,30.16,East,101,2.0,4.0,64,0.00,,,0.00,Wunderground v.1.15,2013-10-19 03:37:00,
2013-10-18 20:38:00,49.6,37.9,30.16,East,101,2.0,4.0,64,0.00,,,0.00,Wunderground v.1.15,2013-10-19 03:38:00,
2013-10-18 20:39:00,49.5,37.8,30.16,East,101,4.0,4.0,64,0.00,,,0.00,Wunderground v.1.15,2013-10-19 03:39:00,
2013-10-18 20:42:00,49.1,37.8,30.16,East,101,2.0,4.0,65,0.00,,,0.00,Wunderground v.1.15,2013-10-19 03:42:00,
2013-10-18 20:43:00,49.0,37.7,30.17,East,101,4.0,4.0,65,0.00,,,0.00,Wunderground v.1.15,2013-10-19 03:43:00,
2013-10-18 20:44:00,48.7,37.5,30.17,East,101,2.0,4.0,65,0.00,,,0.00,Wunderground v.1.15,2013-10-19 03:44:00,
2013-10-18 20:48:00,47.9,37.1,30.17,East,101,2.0,4.0,66,0.00,,,0.00,Wunderground v.1.15,2013-10-19 03:48:00,
2013-10-18 20:49:00,47.8,37.4,30.17,East,101,2.0,4.0,67,0.00,,,0.00,Wunderground v.1.15,2013-10-19 03:49:00,
2013-10-18 20:50:00,47.8,37.4,30.16,East,101,2.0,4.0,67,0.00,,,0.00,Wunderground v.1.15,2013-10-19 03:50:00,
2013-10-18 20:53:00,47.7,37.7,30.17,East,101,2.0,5.0,68,0.00,,,0.00,Wunderground v.1.15,2013-10-19 03:53:00,
2013-10-18 20:54:00,47.5,37.5,30.17,East,101,4.0,5.0,68,0.00,,,0.00,Wunderground v.1.15,2013-10-19 03:54:00,
2013-10-18 20:55:00,47.4,37.4,30.17,East,101,4.0,5.0,68,0.00,,,0.00,Wunderground v.1.15,2013-10-19 03:55:00,
2013-10-18 20:58:00,47.0,37.4,30.16,East,101,4.0,5.0,69,0.00,,,0.00,Wunderground v.1.15,2013-10-19 03:58:00,
2013-10-18 20:59:00,47.2,37.5,30.16,East,101,4.0,5.0,69,0.00,,,0.00,Wunderground v.1.15,2013-10-19 03:59:00,
2013-10-18 21:00:00,47.5,37.8,30.16,East,101,4.0,5.0,69,0.00,,,0.00,Wunderground v.1.15,2013-10-19 04:00:00,
2013-10-18 21:01:00,47.8,38.1,30.17,East,101,5.0,5.0,69,0.00,,,0.00,Wunderground v.1.15,2013-10-19 04:01:00,
2013-10-18 21:06:00,47.4,37.0,30.16,East,101,4.0,5.0,67,0.00,,,0.00,Wunderground v.1.15,2013-10-19 04:06:00,
2013-10-18 21:07:00,47.2,36.8,30.17,East,101,5.0,5.0,67,0.00,,,0.00,Wunderground v.1.15,2013-10-19 04:07:00,
2013-10-18 21:11:00,48.4,37.9,30.16,East,101,4.0,5.0,67,0.00,,,0.00,Wunderground v.1.15,2013-10-19 04:11:00,
2013-10-18 21:12:00,48.4,37.6,30.16,East,101,4.0,5.0,66,0.00,,,0.00,Wunderground v.1.15,2013-10-19 04:12:00,
2013-10-18 21:16:00,47.6,37.2,30.16,East,101,4.0,5.0,67,0.00,,,0.00,Wunderground v.1.15,2013-10-19 04:16:00,
2013-10-18 21:17:00,47.3,36.9,30.17,East,101,2.0,5.0,67,0.00,,,0.00,Wunderground v.1.15,2013-10-19 04:17:00,
2013-10-18 21:18:00,47.0,37.0,30.16,East,101,5.0,5.0,68,0.00,,,0.00,Wunderground v.1.15,2013-10-19 04:18:00,
2013-10-18 21:21:00,46.5,36.9,30.16,East,101,5.0,5.0,69,0.00,,,0.00,Wunderground v.1.15,2013-10-19 04:21:00,
2013-10-18 21:22:00,46.4,36.8,30.16,East,101,5.0,5.0,69,0.00,,,0.00,Wunderground v.1.15,2013-10-19 04:22:00,
2013-10-18 21:23:00,46.4,36.8,30.16,East,101,5.0,5.0,69,0.00,,,0.00,Wunderground v.1.15,2013-10-19 04:23:00,
2013-10-18 21:26:00,46.5,37.2,30.17,East,101,4.0,5.0,70,0.00,,,0.00,Wunderground v.1.15,2013-10-19 04:26:00,
2013-10-18 21:27:00,46.6,37.0,30.17,East,101,4.0,5.0,69,0.00,,,0.00,Wunderground v.1.15,2013-10-19 04:27:00,
2013-10-18 21:29:00,46.9,37.3,30.17,East,101,4.0,5.0,69,0.00,,,0.00,Wunderground v.1.15,2013-10-19 04:29:00,
2013-10-18 21:31:00,47.0,37.0,30.16,East,101,2.0,5.0,68,0.00,,,0.00,Wunderground v.1.15,2013-10-19 04:31:00,
2013-10-18 21:32:00,47.0,37.0,30.16,East,101,2.0,5.0,68,0.00,,,0.00,Wunderground v.1.15,2013-10-19 04:32:00,
2013-10-18 21:33:00,47.0,37.0,30.17,East,101,4.0,5.0,68,0.00,,,0.00,Wunderground v.1.15,2013-10-19 04:33:00,
2013-10-18 21:34:00,47.0,37.0,30.17,East,101,2.0,5.0,68,0.00,,,0.00,Wunderground v.1.15,2013-10-19 04:34:00,
2013-10-18 21:37:00,47.0,37.0,30.17,East,101,1.0,5.0,68,0.00,,,0.00,Wunderground v.1.15,2013-10-19 04:37:00,
2013-10-18 21:38:00,47.0,37.0,30.17,East,101,1.0,5.0,68,0.00,,,0.00,Wunderground v.1.15,2013-10-19 04:38:00,
2013-10-18 21:39:00,47.2,37.5,30.17,East,101,4.0,5.0,69,0.00,,,0.00,Wunderground v.1.15,2013-10-19 04:39:00,
2013-10-18 21:42:00,47.4,37.4,30.17,East,101,2.0,4.0,68,0.00,,,0.00,Wunderground v.1.15,2013-10-19 04:42:00,
2013-10-18 21:43:00,47.3,36.9,30.17,East,101,2.0,4.0,67,0.00,,,0.00,Wunderground v.1.15,2013-10-19 04:43:00,
2013-10-18 21:44:00,47.0,37.0,30.17,East,101,2.0,4.0,68,0.00,,,0.00,Wunderground v.1.15,2013-10-19 04:44:00,
2013-10-18 21:47:00,46.3,36.3,30.17,East,101,4.0,4.0,68,0.00,,,0.00,Wunderground v.1.15,2013-10-19 04:47:00,
2013-10-18 21:48:00,45.9,36.7,30.17,East,101,4.0,5.0,70,0.00,,,0.00,Wunderground v.1.15,2013-10-19 04:48:00,
2013-10-18 21:49:00,45.6,36.4,30.17,East,101,2.0,5.0,70,0.00,,,0.00,Wunderground v.1.15,2013-10-19 04:49:00,
2013-10-18 21:52:00,45.6,37.1,30.17,East,101,4.0,5.0,72,0.00,,,0.00,Wunderground v.1.15,2013-10-19 04:52:00,
2013-10-18 21:53:00,45.7,36.8,30.17,East,101,2.0,5.0,71,0.00,,,0.00,Wunderground v.1.15,2013-10-19 04:53:00,
2013-10-18 21:54:00,45.6,36.7,30.16,East,101,2.0,5.0,71,0.00,,,0.00,Wunderground v.1.15,2013-10-19 04:54:00,
2013-10-18 21:57:00,45.8,37.3,30.16,East,101,2.0,5.0,72,0.00,,,0.00,Wunderground v.1.15,2013-10-19 04:57:00,
2013-10-18 21:58:00,46.0,37.5,30.16,East,101,4.0,5.0,72,0.00,,,0.00,Wunderground v.1.15,2013-10-19 04:58:00,
2013-10-18 21:59:00,46.1,37.6,30.16,East,101,4.0,5.0,72,0.00,,,0.00,Wunderground v.1.15,2013-10-19 04:59:00,
2013-10-18 22:03:00,46.9,37.6,30.16,East,101,4.0,4.0,70,0.00,,,0.00,Wunderground v.1.15,2013-10-19 05:03:00,
2013-10-18 22:04:00,47.2,37.5,30.16,East,101,2.0,4.0,69,0.00,,,0.00,Wunderground v.1.15,2013-10-19 05:04:00,
2013-10-18 22:05:00,47.4,37.7,30.16,East,101,2.0,4.0,69,0.00,,,0.00,Wunderground v.1.15,2013-10-19 05:05:00,
2013-10-18 22:08:00,47.7,37.3,30.16,East,101,2.0,4.0,67,0.00,,,0.00,Wunderground v.1.15,2013-10-19 05:08:00,
2013-10-18 22:09:00,47.8,37.4,30.16,East,101,2.0,4.0,67,0.00,,,0.00,Wunderground v.1.15,2013-10-19 05:09:00,
2013-10-18 22:10:00,47.9,37.5,30.16,East,101,2.0,2.0,67,0.00,,,0.00,Wunderground v.1.15,2013-10-19 05:10:00,
2013-10-18 22:13:00,48.2,37.4,30.16,East,101,2.0,4.0,66,0.00,,,0.00,Wunderground v.1.15,2013-10-19 05:13:00,
2013-10-18 22:14:00,48.1,36.9,30.16,East,101,4.0,4.0,65,0.00,,,0.00,Wunderground v.1.15,2013-10-19 05:14:00,
2013-10-18 22:15:00,48.0,37.2,30.16,East,101,4.0,4.0,66,0.00,,,0.00,Wunderground v.1.15,2013-10-19 05:15:00,
2013-10-18 22:18:00,47.3,36.9,30.16,East,101,2.0,4.0,67,0.00,,,0.00,Wunderground v.1.15,2013-10-19 05:18:00,
2013-10-18 22:19:00,47.2,36.8,30.16,East,101,4.0,4.0,67,0.00,,,0.00,Wunderground v.1.15,2013-10-19 05:19:00,
2013-10-18 22:20:00,47.1,37.1,30.16,East,101,4.0,4.0,68,0.00,,,0.00,Wunderground v.1.15,2013-10-19 05:20:00,
2013-10-18 22:21:00,46.9,36.9,30.16,East,101,4.0,4.0,68,0.00,,,0.00,Wunderground v.1.15,2013-10-19 05:21:00,
2013-10-18 22:23:00,46.9,36.9,30.16,East,101,1.0,4.0,68,0.00,,,0.00,Wunderground v.1.15,2013-10-19 05:23:00,
2013-10-18 22:24:00,47.0,37.0,30.16,East,101,4.0,4.0,68,0.00,,,0.00,Wunderground v.1.15,2013-10-19 05:24:00,
2013-10-18 22:25:00,47.0,37.0,30.16,East,101,2.0,4.0,68,0.00,,,0.00,Wunderground v.1.15,2013-10-19 05:25:00,
2013-10-18 22:26:00,47.1,37.1,30.16,East,101,2.0,4.0,68,0.00,,,0.00,Wunderground v.1.15,2013-10-19 05:26:00,
2013-10-18 22:29:00,47.5,37.1,30.16,East,101,2.0,4.0,67,0.00,,,0.00,Wunderground v.1.15,2013-10-19 05:29:00,
2013-10-18 22:30:00,47.5,37.1,30.16,East,101,2.0,3.0,67,0.00,,,0.00,Wunderground v.1.15,2013-10-19 05:30:00,
2013-10-18 22:31:00,47.6,37.2,30.16,East,101,1.0,4.0,67,0.00,,,0.00,Wunderground v.1.15,2013-10-19 05:31:00,
2013-10-18 22:34:00,48.0,37.2,30.16,East,101,2.0,4.0,66,0.00,,,0.00,Wunderground v.1.15,2013-10-19 05:34:00,
2013-10-18 22:35:00,47.9,37.1,30.16,East,101,2.0,4.0,66,0.00,,,0.00,Wunderground v.1.15,2013-10-19 05:35:00,
2013-10-18 22:36:00,47.8,37.0,30.16,East,101,2.0,4.0,66,0.00,,,0.00,Wunderground v.1.15,2013-10-19 05:36:00,
2013-10-18 22:37:00,47.6,36.8,30.16,East,101,5.0,6.0,66,0.00,,,0.00,Wunderground v.1.15,2013-10-19 05:37:00,
2013-10-18 22:39:00,47.3,36.9,30.16,East,101,4.0,6.0,67,0.00,,,0.00,Wunderground v.1.15,2013-10-19 05:39:00,
2013-10-18 22:40:00,47.1,36.7,30.16,East,101,5.0,5.0,67,0.00,,,0.00,Wunderground v.1.15,2013-10-19 05:40:00,
2013-10-18 22:41:00,47.0,36.6,30.16,East,101,4.0,5.0,67,0.00,,,0.00,Wunderground v.1.15,2013-10-19 05:41:00,
2013-10-18 22:42:00,46.9,36.9,30.16,East,101,2.0,5.0,68,0.00,,,0.00,Wunderground v.1.15,2013-10-19 05:42:00,
2013-10-18 22:44:00,46.5,36.5,30.16,East,101,2.0,5.0,68,0.00,,,0.00,Wunderground v.1.15,2013-10-19 05:44:00,
2013-10-18 22:45:00,46.4,36.8,30.16,East,101,2.0,5.0,69,0.00,,,0.00,Wunderground v.1.15,2013-10-19 05:45:00,
2013-10-18 22:46:00,46.3,36.7,30.16,East,101,2.0,5.0,69,0.00,,,0.00,Wunderground v.1.15,2013-10-19 05:46:00,
2013-10-18 22:47:00,46.2,36.6,30.16,East,101,5.0,5.0,69,0.00,,,0.00,Wunderground v.1.15,2013-10-19 05:47:00,
2013-10-18 22:49:00,46.1,36.5,30.16,East,101,4.0,6.0,69,0.00,,,0.00,Wunderground v.1.15,2013-10-19 05:49:00,
2013-10-18 22:51:00,46.1,36.9,30.16,East,101,2.0,4.0,70,0.00,,,0.00,Wunderground v.1.15,2013-10-19 05:51:00,
2013-10-18 22:52:00,46.1,36.5,30.17,East,101,1.0,4.0,69,0.00,,,0.00,Wunderground v.1.15,2013-10-19 05:52:00,
2013-10-18 22:54:00,45.8,36.2,30.16,East,101,2.0,4.0,69,0.00,,,0.00,Wunderground v.1.15,2013-10-19 05:54:00,
2013-10-18 22:56:00,45.4,36.2,30.17,East,101,2.0,4.0,70,0.00,,,0.00,Wunderground v.1.15,2013-10-19 05:56:00,
2013-10-18 22:57:00,45.3,36.1,30.16,East,101,2.0,4.0,70,0.00,,,0.00,Wunderground v.1.15,2013-10-19 05:57:00,
2013-10-18 22:58:00,45.2,36.0,30.17,East,101,2.0,4.0,70,0.00,,,0.00,Wunderground v.1.15,2013-10-19 05:58:00,
2013-10-18 23:00:00,45.1,36.3,30.16,East,101,2.0,2.0,71,0.00,,,0.00,Wunderground v.1.15,2013-10-19 06:00:00,
2013-10-18 23:01:00,45.1,36.3,30.16,East,101,2.0,4.0,71,0.00,,,0.00,Wunderground v.1.15,2013-10-19 06:01:00,
2013-10-18 23:02:00,45.1,36.3,30.16,East,101,1.0,4.0,71,0.00,,,0.00,Wunderground v.1.15,2013-10-19 06:02:00,
2013-10-18 23:03:00,45.1,36.3,30.16,East,101,1.0,4.0,71,0.00,,,0.00,Wunderground v.1.15,2013-10-19 06:03:00,
2013-10-18 23:05:00,45.1,36.3,30.16,East,101,1.0,4.0,71,0.00,,,0.00,Wunderground v.1.15,2013-10-19 06:05:00,
2013-10-18 23:06:00,45.1,36.3,30.16,East,101,1.0,4.0,71,0.00,,,0.00,Wunderground v.1.15,2013-10-19 06:06:00,
2013-10-18 23:07:00,45.1,36.3,30.17,East,101,1.0,4.0,71,0.00,,,0.00,Wunderground v.1.15,2013-10-19 06:07:00,
2013-10-18 23:08:00,45.0,36.2,30.16,East,101,1.0,4.0,71,0.00,,,0.00,Wunderground v.1.15,2013-10-19 06:08:00,
2013-10-18 23:10:00,45.0,36.2,30.16,East,101,0.0,1.0,71,0.00,,,0.00,Wunderground v.1.15,2013-10-19 06:10:00,
2013-10-18 23:11:00,45.0,36.5,30.16,East,101,1.0,2.0,72,0.00,,,0.00,Wunderground v.1.15,2013-10-19 06:11:00,
2013-10-18 23:12:00,45.0,36.2,30.16,East,101,1.0,2.0,71,0.00,,,0.00,Wunderground v.1.15,2013-10-19 06:12:00,
2013-10-18 23:14:00,44.9,36.4,30.16,East,101,1.0,2.0,72,0.00,,,0.00,Wunderground v.1.15,2013-10-19 06:14:00,
2013-10-18 23:15:00,45.0,36.5,30.16,East,101,1.0,2.0,72,0.00,,,0.00,Wunderground v.1.15,2013-10-19 06:15:00,
2013-10-18 23:17:00,44.9,36.1,30.16,East,101,1.0,2.0,71,0.00,,,0.00,Wunderground v.1.15,2013-10-19 06:17:00,
2013-10-18 23:18:00,44.9,36.1,30.16,East,101,2.0,2.0,71,0.00,,,0.00,Wunderground v.1.15,2013-10-19 06:18:00,
2013-10-18 23:19:00,44.7,35.9,30.16,East,101,1.0,2.0,71,0.00,,,0.00,Wunderground v.1.15,2013-10-19 06:19:00,
2013-10-18 23:20:00,44.7,36.2,30.16,East,101,1.0,2.0,72,0.00,,,0.00,Wunderground v.1.15,2013-10-19 06:20:00,
2013-10-18 23:22:00,44.8,36.3,30.16,East,101,1.0,2.0,72,0.00,,,0.00,Wunderground v.1.15,2013-10-19 06:22:00,
2013-10-18 23:23:00,44.9,36.4,30.16,East,101,2.0,2.0,72,0.00,,,0.00,Wunderground v.1.15,2013-10-19 06:23:00,
2013-10-18 23:24:00,45.2,36.7,30.16,East,101,2.0,2.0,72,0.00,,,0.00,Wunderground v.1.15,2013-10-19 06:24:00,
2013-10-18 23:25:00,45.5,36.6,30.16,East,101,1.0,2.0,71,0.00,,,0.00,Wunderground v.1.15,2013-10-19 06:25:00,
2013-10-18 23:27:00,45.9,37.0,30.16,East,101,2.0,2.0,71,0.00,,,0.00,Wunderground v.1.15,2013-10-19 06:27:00,
2013-10-18 23:28:00,46.0,36.8,30.16,East,101,2.0,2.0,70,0.00,,,0.00,Wunderground v.1.15,2013-10-19 06:28:00,
2013-10-18 23:29:00,46.2,37.0,30.16,East,101,2.0,2.0,70,0.00,,,0.00,Wunderground v.1.15,2013-10-19 06:29:00,
2013-10-18 23:30:00,46.4,37.1,30.16,East,101,2.0,2.0,70,0.00,,,0.00,Wunderground v.1.15,2013-10-19 06:30:00,
2013-10-18 23:31:00,46.6,37.0,30.16,East,101,1.0,2.0,69,0.00,,,0.00,Wunderground v.1.15,2013-10-19 06:31:00,
2013-10-18 23:32:00,46.8,37.2,30.16,East,101,1.0,2.0,69,0.00,,,0.00,Wunderground v.1.15,2013-10-19 06:32:00,
2013-10-18 23:33:00,46.9,36.9,30.16,East,101,1.0,2.0,68,0.00,,,0.00,Wunderground v.1.15,2013-10-19 06:33:00,
2013-10-18 23:34:00,47.1,37.1,30.16,East,101,1.0,2.0,68,0.00,,,0.00,Wunderground v.1.15,2013-10-19 06:34:00,
2013-10-18 23:35:00,47.2,37.2,30.16,East,101,1.0,2.0,68,0.00,,,0.00,Wunderground v.1.15,2013-10-19 06:35:00,
2013-10-18 23:36:00,47.2,36.8,30.16,East,101,2.0,2.0,67,0.00,,,0.00,Wunderground v.1.15,2013-10-19 06:36:00,
2013-10-18 23:37:00,47.3,36.9,30.16,East,101,1.0,2.0,67,0.00,,,0.00,Wunderground v.1.15,2013-10-19 06:37:00,
2013-10-18 23:38:00,47.4,37.0,30.16,East,101,2.0,2.0,67,0.00,,,0.00,Wunderground v.1.15,2013-10-19 06:38:00,
2013-10-18 23:39:00,47.4,37.0,30.16,East,101,2.0,2.0,67,0.00,,,0.00,Wunderground v.1.15,2013-10-19 06:39:00,
2013-10-18 23:40:00,47.5,37.1,30.16,East,101,2.0,2.0,67,0.00,,,0.00,Wunderground v.1.15,2013-10-19 06:40:00,
2013-10-18 23:41:00,47.5,37.1,30.16,East,101,1.0,2.0,67,0.00,,,0.00,Wunderground v.1.15,2013-10-19 06:41:00,
2013-10-18 23:42:00,47.5,36.7,30.16,East,101,2.0,2.0,66,0.00,,,0.00,Wunderground v.1.15,2013-10-19 06:42:00,
2013-10-18 23:43:00,47.2,36.4,30.16,East,101,2.0,2.0,66,0.00,,,0.00,Wunderground v.1.15,2013-10-19 06:43:00,
2013-10-18 23:45:00,47.0,36.6,30.16,East,101,2.0,2.0,67,0.00,,,0.00,Wunderground v.1.15,2013-10-19 06:45:00,
2013-10-18 23:46:00,46.9,36.5,30.16,East,101,1.0,2.0,67,0.00,,,0.00,Wunderground v.1.15,2013-10-19 06:46:00,
2013-10-18 23:47:00,46.9,36.9,30.16,East,101,2.0,4.0,68,0.00,,,0.00,Wunderground v.1.15,2013-10-19 06:47:00,
2013-10-18 23:48:00,47.0,37.0,30.16,East,101,4.0,4.0,68,0.00,,,0.00,Wunderground v.1.15,2013-10-19 06:48:00,
2013-10-18 23:49:00,47.0,37.0,30.16,East,101,4.0,4.0,68,0.00,,,0.00,Wunderground v.1.15,2013-10-19 06:49:00,
2013-10-18 23:51:00,47.2,36.8,30.16,East,101,4.0,4.0,67,0.00,,,0.00,Wunderground v.1.15,2013-10-19 06:51:00,
2013-10-18 23:53:00,47.2,36.8,30.16,East,101,5.0,5.0,67,0.00,,,0.00,Wunderground v.1.15,2013-10-19 06:53:00,
2013-10-18 23:55:00,47.2,36.8,30.16,East,101,5.0,5.0,67,0.00,,,0.00,Wunderground v.1.15,2013-10-19 06:55:00,
2013-10-18 23:57:00,47.4,37.0,30.16,East,101,5.0,5.0,67,0.00,,,0.00,Wunderground v.1.15,2013-10-19 06:57:00,
2013-10-18 23:58:00,47.4,37.0,30.16,East,101,5.0,5.0,67,0.00,,,0.00,Wunderground v.1.15,2013-10-19 06:58:00,